<?xml version="1.0" encoding="UTF-8" standalone="no" ?>
<gpx xmlns="http://www.topografix.com/GPX/1/1" xmlns:xsi="http://www.w3.org/2001/XMLSchema-instance" xsi:schemaLocation="http://www.topografix.com/GPX/1/1 http://www.topografix.com/GPX/1/1/gpx.xsd" version="1.1" creator="VisuGPX - https://www.visugpx.com">
  <metadata>
    <name>CAHUZAC SUR VERE   MJC</name>
    <desc><![CDATA[Départ parking des randonneurs à Cahuzac sur Vere]]></desc>
  </metadata>
  <wpt lat="43.98363" lon="1.90931">
    <ele>206.6</ele>
  </wpt>
  <trk>
    <name><![CDATA[CAHUZAC SUR VERE   MJC_1]]></name>
    <extensions>
      <line xmlns="http://www.topografix.com/GPX/gpx_style/0/2">
        <color>0000FF</color>
        <opacity>0.95</opacity>
        <width>4</width>
        <dasharray>4</dasharray>
      </line>
    </extensions>
    <trkseg>
      <trkpt lat="43.97755" lon="1.90169">
        <ele>208.26</ele>
        <time>2020-10-25T09:08:10Z</time>
      </trkpt>
      <trkpt lat="43.97755" lon="1.90169">
        <ele>208.26</ele>
        <time>2020-10-25T09:08:10Z</time>
      </trkpt>
      <trkpt lat="43.97755" lon="1.90169">
        <ele>208.26</ele>
        <time>2020-10-25T09:08:10Z</time>
      </trkpt>
      <trkpt lat="43.97755" lon="1.90169">
        <ele>208.26</ele>
        <time>2020-10-25T09:08:10Z</time>
      </trkpt>
      <trkpt lat="43.97769" lon="1.90154">
        <ele>207.78</ele>
        <time>2020-10-25T09:08:23Z</time>
      </trkpt>
      <trkpt lat="43.97772" lon="1.90151">
        <ele>207.78</ele>
        <time>2020-10-25T09:08:26Z</time>
      </trkpt>
      <trkpt lat="43.97778" lon="1.90146">
        <ele>207.3</ele>
        <time>2020-10-25T09:08:31Z</time>
      </trkpt>
      <trkpt lat="43.97782" lon="1.90139">
        <ele>207.3</ele>
        <time>2020-10-25T09:08:36Z</time>
      </trkpt>
      <trkpt lat="43.9779" lon="1.90122">
        <ele>206.82</ele>
        <time>2020-10-25T09:08:51Z</time>
      </trkpt>
      <trkpt lat="43.97791" lon="1.90117">
        <ele>206.82</ele>
        <time>2020-10-25T09:09:00Z</time>
      </trkpt>
      <trkpt lat="43.97788" lon="1.9008">
        <ele>206.82</ele>
        <time>2020-10-25T09:09:19Z</time>
      </trkpt>
      <trkpt lat="43.97796" lon="1.90055">
        <ele>206.82</ele>
        <time>2020-10-25T09:09:34Z</time>
      </trkpt>
      <trkpt lat="43.97802" lon="1.90043">
        <ele>206.82</ele>
        <time>2020-10-25T09:09:48Z</time>
      </trkpt>
      <trkpt lat="43.97804" lon="1.90042">
        <ele>206.82</ele>
        <time>2020-10-25T09:10:04Z</time>
      </trkpt>
      <trkpt lat="43.978" lon="1.90041">
        <ele>206.82</ele>
        <time>2020-10-25T09:10:15Z</time>
      </trkpt>
      <trkpt lat="43.97798" lon="1.90039">
        <ele>206.82</ele>
        <time>2020-10-25T09:10:38Z</time>
      </trkpt>
      <trkpt lat="43.978" lon="1.90042">
        <ele>206.82</ele>
        <time>2020-10-25T09:10:56Z</time>
      </trkpt>
      <trkpt lat="43.978" lon="1.90041">
        <ele>208.26</ele>
        <time>2020-10-25T09:11:01Z</time>
      </trkpt>
      <trkpt lat="43.978" lon="1.90041">
        <ele>208.26</ele>
        <time>2020-10-25T09:11:20Z</time>
      </trkpt>
      <trkpt lat="43.97801" lon="1.9004">
        <ele>208.26</ele>
        <time>2020-10-25T09:11:39Z</time>
      </trkpt>
      <trkpt lat="43.97801" lon="1.90042">
        <ele>208.26</ele>
        <time>2020-10-25T09:11:55Z</time>
      </trkpt>
      <trkpt lat="43.97801" lon="1.90043">
        <ele>208.26</ele>
        <time>2020-10-25T09:12:10Z</time>
      </trkpt>
      <trkpt lat="43.97801" lon="1.90043">
        <ele>208.26</ele>
        <time>2020-10-25T09:12:20Z</time>
      </trkpt>
      <trkpt lat="43.97801" lon="1.90041">
        <ele>208.26</ele>
        <time>2020-10-25T09:12:33Z</time>
      </trkpt>
      <trkpt lat="43.978" lon="1.9004">
        <ele>208.26</ele>
        <time>2020-10-25T09:12:48Z</time>
      </trkpt>
      <trkpt lat="43.97795" lon="1.90036">
        <ele>208.26</ele>
        <time>2020-10-25T09:13:01Z</time>
      </trkpt>
      <trkpt lat="43.97799" lon="1.90036">
        <ele>208.74</ele>
        <time>2020-10-25T09:13:13Z</time>
      </trkpt>
      <trkpt lat="43.978" lon="1.90034">
        <ele>208.74</ele>
        <time>2020-10-25T09:13:33Z</time>
      </trkpt>
      <trkpt lat="43.978" lon="1.90033">
        <ele>208.74</ele>
        <time>2020-10-25T09:13:34Z</time>
      </trkpt>
      <trkpt lat="43.97792" lon="1.90011">
        <ele>209.22</ele>
        <time>2020-10-25T09:13:48Z</time>
      </trkpt>
      <trkpt lat="43.97778" lon="1.89986">
        <ele>209.7</ele>
        <time>2020-10-25T09:14:05Z</time>
      </trkpt>
      <trkpt lat="43.97764" lon="1.89965">
        <ele>210.67</ele>
        <time>2020-10-25T09:14:20Z</time>
      </trkpt>
      <trkpt lat="43.9775" lon="1.89942">
        <ele>211.15</ele>
        <time>2020-10-25T09:14:36Z</time>
      </trkpt>
      <trkpt lat="43.9774" lon="1.89918">
        <ele>212.11</ele>
        <time>2020-10-25T09:14:51Z</time>
      </trkpt>
      <trkpt lat="43.9773" lon="1.89892">
        <ele>213.07</ele>
        <time>2020-10-25T09:15:07Z</time>
      </trkpt>
      <trkpt lat="43.97719" lon="1.89867">
        <ele>214.03</ele>
        <time>2020-10-25T09:15:23Z</time>
      </trkpt>
      <trkpt lat="43.97713" lon="1.89856">
        <ele>213.55</ele>
        <time>2020-10-25T09:15:40Z</time>
      </trkpt>
      <trkpt lat="43.97716" lon="1.89856">
        <ele>213.55</ele>
        <time>2020-10-25T09:16:06Z</time>
      </trkpt>
      <trkpt lat="43.97717" lon="1.89855">
        <ele>214.03</ele>
        <time>2020-10-25T09:16:24Z</time>
      </trkpt>
      <trkpt lat="43.97715" lon="1.89855">
        <ele>214.03</ele>
        <time>2020-10-25T09:16:46Z</time>
      </trkpt>
      <trkpt lat="43.97711" lon="1.89853">
        <ele>214.03</ele>
        <time>2020-10-25T09:17:11Z</time>
      </trkpt>
      <trkpt lat="43.97712" lon="1.8985">
        <ele>214.03</ele>
        <time>2020-10-25T09:17:33Z</time>
      </trkpt>
      <trkpt lat="43.97703" lon="1.89833">
        <ele>214.03</ele>
        <time>2020-10-25T09:17:45Z</time>
      </trkpt>
      <trkpt lat="43.97689" lon="1.89812">
        <ele>214.51</ele>
        <time>2020-10-25T09:18:00Z</time>
      </trkpt>
      <trkpt lat="43.97675" lon="1.89797">
        <ele>215.95</ele>
        <time>2020-10-25T09:18:15Z</time>
      </trkpt>
      <trkpt lat="43.9766" lon="1.8978">
        <ele>218.84</ele>
        <time>2020-10-25T09:18:32Z</time>
      </trkpt>
      <trkpt lat="43.97646" lon="1.89762">
        <ele>221.24</ele>
        <time>2020-10-25T09:18:50Z</time>
      </trkpt>
      <trkpt lat="43.9763" lon="1.89742">
        <ele>222.68</ele>
        <time>2020-10-25T09:19:07Z</time>
      </trkpt>
      <trkpt lat="43.97617" lon="1.89726">
        <ele>224.12</ele>
        <time>2020-10-25T09:19:21Z</time>
      </trkpt>
      <trkpt lat="43.97606" lon="1.89707">
        <ele>226.05</ele>
        <time>2020-10-25T09:19:36Z</time>
      </trkpt>
      <trkpt lat="43.97601" lon="1.89698">
        <ele>227.49</ele>
        <time>2020-10-25T09:19:45Z</time>
      </trkpt>
      <trkpt lat="43.97592" lon="1.89675">
        <ele>228.93</ele>
        <time>2020-10-25T09:20:02Z</time>
      </trkpt>
      <trkpt lat="43.97581" lon="1.89647">
        <ele>230.37</ele>
        <time>2020-10-25T09:20:22Z</time>
      </trkpt>
      <trkpt lat="43.97572" lon="1.89625">
        <ele>231.33</ele>
        <time>2020-10-25T09:20:37Z</time>
      </trkpt>
      <trkpt lat="43.97561" lon="1.89602">
        <ele>232.78</ele>
        <time>2020-10-25T09:20:54Z</time>
      </trkpt>
      <trkpt lat="43.97548" lon="1.89581">
        <ele>233.74</ele>
        <time>2020-10-25T09:21:10Z</time>
      </trkpt>
      <trkpt lat="43.97534" lon="1.89557">
        <ele>234.22</ele>
        <time>2020-10-25T09:21:29Z</time>
      </trkpt>
      <trkpt lat="43.97518" lon="1.89536">
        <ele>235.18</ele>
        <time>2020-10-25T09:21:47Z</time>
      </trkpt>
      <trkpt lat="43.97504" lon="1.89521">
        <ele>235.66</ele>
        <time>2020-10-25T09:22:02Z</time>
      </trkpt>
      <trkpt lat="43.97491" lon="1.89509">
        <ele>236.62</ele>
        <time>2020-10-25T09:22:15Z</time>
      </trkpt>
      <trkpt lat="43.97473" lon="1.89494">
        <ele>238.54</ele>
        <time>2020-10-25T09:22:33Z</time>
      </trkpt>
      <trkpt lat="43.97454" lon="1.89475">
        <ele>240.95</ele>
        <time>2020-10-25T09:22:52Z</time>
      </trkpt>
      <trkpt lat="43.97442" lon="1.89463">
        <ele>242.39</ele>
        <time>2020-10-25T09:23:07Z</time>
      </trkpt>
      <trkpt lat="43.97427" lon="1.89448">
        <ele>244.31</ele>
        <time>2020-10-25T09:23:25Z</time>
      </trkpt>
      <trkpt lat="43.97412" lon="1.89434">
        <ele>246.23</ele>
        <time>2020-10-25T09:23:43Z</time>
      </trkpt>
      <trkpt lat="43.97397" lon="1.8942">
        <ele>248.64</ele>
        <time>2020-10-25T09:24:01Z</time>
      </trkpt>
      <trkpt lat="43.97382" lon="1.89405">
        <ele>251.04</ele>
        <time>2020-10-25T09:24:19Z</time>
      </trkpt>
      <trkpt lat="43.97371" lon="1.89395">
        <ele>252.96</ele>
        <time>2020-10-25T09:24:33Z</time>
      </trkpt>
      <trkpt lat="43.97362" lon="1.89389">
        <ele>254.89</ele>
        <time>2020-10-25T09:24:50Z</time>
      </trkpt>
      <trkpt lat="43.97356" lon="1.89386">
        <ele>254.89</ele>
        <time>2020-10-25T09:25:06Z</time>
      </trkpt>
      <trkpt lat="43.97357" lon="1.89387">
        <ele>254.89</ele>
        <time>2020-10-25T09:25:31Z</time>
      </trkpt>
      <trkpt lat="43.97357" lon="1.89389">
        <ele>254.89</ele>
        <time>2020-10-25T09:25:51Z</time>
      </trkpt>
      <trkpt lat="43.97355" lon="1.89386">
        <ele>254.89</ele>
        <time>2020-10-25T09:26:07Z</time>
      </trkpt>
      <trkpt lat="43.97352" lon="1.89383">
        <ele>254.89</ele>
        <time>2020-10-25T09:26:13Z</time>
      </trkpt>
      <trkpt lat="43.97337" lon="1.89363">
        <ele>254.89</ele>
        <time>2020-10-25T09:26:29Z</time>
      </trkpt>
      <trkpt lat="43.97322" lon="1.89335">
        <ele>256.33</ele>
        <time>2020-10-25T09:26:48Z</time>
      </trkpt>
      <trkpt lat="43.97319" lon="1.89324">
        <ele>256.33</ele>
        <time>2020-10-25T09:26:55Z</time>
      </trkpt>
      <trkpt lat="43.97316" lon="1.89308">
        <ele>256.33</ele>
        <time>2020-10-25T09:27:04Z</time>
      </trkpt>
      <trkpt lat="43.97316" lon="1.89304">
        <ele>256.33</ele>
        <time>2020-10-25T09:27:06Z</time>
      </trkpt>
      <trkpt lat="43.97317" lon="1.89294">
        <ele>256.33</ele>
        <time>2020-10-25T09:27:11Z</time>
      </trkpt>
      <trkpt lat="43.97316" lon="1.89284">
        <ele>254.89</ele>
        <time>2020-10-25T09:27:16Z</time>
      </trkpt>
      <trkpt lat="43.97313" lon="1.89253">
        <ele>253.44</ele>
        <time>2020-10-25T09:27:33Z</time>
      </trkpt>
      <trkpt lat="43.97312" lon="1.89239">
        <ele>252.96</ele>
        <time>2020-10-25T09:27:40Z</time>
      </trkpt>
      <trkpt lat="43.97312" lon="1.89226">
        <ele>252.48</ele>
        <time>2020-10-25T09:27:48Z</time>
      </trkpt>
      <trkpt lat="43.9731" lon="1.89198">
        <ele>251.52</ele>
        <time>2020-10-25T09:28:03Z</time>
      </trkpt>
      <trkpt lat="43.97307" lon="1.8918">
        <ele>251.04</ele>
        <time>2020-10-25T09:28:13Z</time>
      </trkpt>
      <trkpt lat="43.97303" lon="1.89151">
        <ele>250.08</ele>
        <time>2020-10-25T09:28:30Z</time>
      </trkpt>
      <trkpt lat="43.97296" lon="1.89121">
        <ele>248.64</ele>
        <time>2020-10-25T09:28:46Z</time>
      </trkpt>
      <trkpt lat="43.97284" lon="1.89084">
        <ele>246.72</ele>
        <time>2020-10-25T09:29:07Z</time>
      </trkpt>
      <trkpt lat="43.97277" lon="1.8906">
        <ele>245.27</ele>
        <time>2020-10-25T09:29:21Z</time>
      </trkpt>
      <trkpt lat="43.9727" lon="1.89036">
        <ele>243.35</ele>
        <time>2020-10-25T09:29:35Z</time>
      </trkpt>
      <trkpt lat="43.97263" lon="1.89006">
        <ele>242.39</ele>
        <time>2020-10-25T09:29:51Z</time>
      </trkpt>
      <trkpt lat="43.97258" lon="1.88979">
        <ele>241.91</ele>
        <time>2020-10-25T09:30:07Z</time>
      </trkpt>
      <trkpt lat="43.97257" lon="1.88974">
        <ele>241.43</ele>
        <time>2020-10-25T09:30:19Z</time>
      </trkpt>
      <trkpt lat="43.97256" lon="1.88975">
        <ele>240.95</ele>
        <time>2020-10-25T09:30:32Z</time>
      </trkpt>
      <trkpt lat="43.97255" lon="1.88974">
        <ele>240.95</ele>
        <time>2020-10-25T09:30:48Z</time>
      </trkpt>
      <trkpt lat="43.97256" lon="1.88975">
        <ele>240.95</ele>
        <time>2020-10-25T09:31:09Z</time>
      </trkpt>
      <trkpt lat="43.97255" lon="1.88976">
        <ele>240.95</ele>
        <time>2020-10-25T09:31:24Z</time>
      </trkpt>
      <trkpt lat="43.97256" lon="1.88974">
        <ele>240.95</ele>
        <time>2020-10-25T09:31:38Z</time>
      </trkpt>
      <trkpt lat="43.97254" lon="1.88958">
        <ele>240.95</ele>
        <time>2020-10-25T09:31:50Z</time>
      </trkpt>
      <trkpt lat="43.97253" lon="1.88949">
        <ele>240.95</ele>
        <time>2020-10-25T09:31:55Z</time>
      </trkpt>
      <trkpt lat="43.97248" lon="1.88914">
        <ele>239.02</ele>
        <time>2020-10-25T09:32:15Z</time>
      </trkpt>
      <trkpt lat="43.97242" lon="1.88883">
        <ele>237.1</ele>
        <time>2020-10-25T09:32:32Z</time>
      </trkpt>
      <trkpt lat="43.97237" lon="1.88856">
        <ele>235.18</ele>
        <time>2020-10-25T09:32:45Z</time>
      </trkpt>
      <trkpt lat="43.97228" lon="1.88828">
        <ele>233.26</ele>
        <time>2020-10-25T09:33:01Z</time>
      </trkpt>
      <trkpt lat="43.97223" lon="1.888">
        <ele>231.33</ele>
        <time>2020-10-25T09:33:17Z</time>
      </trkpt>
      <trkpt lat="43.97215" lon="1.88771">
        <ele>229.89</ele>
        <time>2020-10-25T09:33:33Z</time>
      </trkpt>
      <trkpt lat="43.97204" lon="1.88739">
        <ele>228.45</ele>
        <time>2020-10-25T09:33:52Z</time>
      </trkpt>
      <trkpt lat="43.97197" lon="1.88723">
        <ele>227.97</ele>
        <time>2020-10-25T09:34:05Z</time>
      </trkpt>
      <trkpt lat="43.97185" lon="1.88699">
        <ele>227.49</ele>
        <time>2020-10-25T09:34:20Z</time>
      </trkpt>
      <trkpt lat="43.97174" lon="1.88675">
        <ele>227.01</ele>
        <time>2020-10-25T09:34:34Z</time>
      </trkpt>
      <trkpt lat="43.97172" lon="1.88646">
        <ele>226.53</ele>
        <time>2020-10-25T09:34:50Z</time>
      </trkpt>
      <trkpt lat="43.97173" lon="1.88618">
        <ele>226.53</ele>
        <time>2020-10-25T09:35:07Z</time>
      </trkpt>
      <trkpt lat="43.97175" lon="1.88587">
        <ele>226.53</ele>
        <time>2020-10-25T09:35:25Z</time>
      </trkpt>
      <trkpt lat="43.97175" lon="1.88552">
        <ele>226.05</ele>
        <time>2020-10-25T09:35:44Z</time>
      </trkpt>
      <trkpt lat="43.97174" lon="1.88524">
        <ele>226.05</ele>
        <time>2020-10-25T09:36:00Z</time>
      </trkpt>
      <trkpt lat="43.97175" lon="1.88514">
        <ele>226.05</ele>
        <time>2020-10-25T09:36:05Z</time>
      </trkpt>
      <trkpt lat="43.97174" lon="1.88509">
        <ele>226.05</ele>
        <time>2020-10-25T09:36:08Z</time>
      </trkpt>
      <trkpt lat="43.97173" lon="1.88491">
        <ele>226.05</ele>
        <time>2020-10-25T09:36:17Z</time>
      </trkpt>
      <trkpt lat="43.97167" lon="1.88461">
        <ele>226.05</ele>
        <time>2020-10-25T09:36:34Z</time>
      </trkpt>
      <trkpt lat="43.97159" lon="1.88432">
        <ele>226.05</ele>
        <time>2020-10-25T09:36:52Z</time>
      </trkpt>
      <trkpt lat="43.97147" lon="1.88437">
        <ele>226.05</ele>
        <time>2020-10-25T09:37:04Z</time>
      </trkpt>
      <trkpt lat="43.97123" lon="1.88449">
        <ele>227.49</ele>
        <time>2020-10-25T09:37:23Z</time>
      </trkpt>
      <trkpt lat="43.97103" lon="1.88456">
        <ele>227.49</ele>
        <time>2020-10-25T09:37:38Z</time>
      </trkpt>
      <trkpt lat="43.97077" lon="1.88465">
        <ele>227.49</ele>
        <time>2020-10-25T09:37:59Z</time>
      </trkpt>
      <trkpt lat="43.97062" lon="1.8847">
        <ele>227.97</ele>
        <time>2020-10-25T09:38:13Z</time>
      </trkpt>
      <trkpt lat="43.97037" lon="1.88476">
        <ele>228.45</ele>
        <time>2020-10-25T09:38:31Z</time>
      </trkpt>
      <trkpt lat="43.97013" lon="1.88481">
        <ele>229.41</ele>
        <time>2020-10-25T09:38:48Z</time>
      </trkpt>
      <trkpt lat="43.96989" lon="1.88488">
        <ele>229.41</ele>
        <time>2020-10-25T09:39:06Z</time>
      </trkpt>
      <trkpt lat="43.96967" lon="1.88492">
        <ele>229.89</ele>
        <time>2020-10-25T09:39:22Z</time>
      </trkpt>
      <trkpt lat="43.96946" lon="1.88498">
        <ele>230.37</ele>
        <time>2020-10-25T09:39:38Z</time>
      </trkpt>
      <trkpt lat="43.96923" lon="1.88505">
        <ele>230.85</ele>
        <time>2020-10-25T09:39:55Z</time>
      </trkpt>
      <trkpt lat="43.96903" lon="1.88513">
        <ele>231.81</ele>
        <time>2020-10-25T09:40:10Z</time>
      </trkpt>
      <trkpt lat="43.96878" lon="1.88519">
        <ele>232.78</ele>
        <time>2020-10-25T09:40:29Z</time>
      </trkpt>
      <trkpt lat="43.96868" lon="1.88519">
        <ele>232.78</ele>
        <time>2020-10-25T09:40:36Z</time>
      </trkpt>
      <trkpt lat="43.96848" lon="1.88517">
        <ele>233.26</ele>
        <time>2020-10-25T09:40:53Z</time>
      </trkpt>
      <trkpt lat="43.96827" lon="1.88519">
        <ele>234.22</ele>
        <time>2020-10-25T09:41:08Z</time>
      </trkpt>
      <trkpt lat="43.96815" lon="1.88523">
        <ele>235.18</ele>
        <time>2020-10-25T09:41:17Z</time>
      </trkpt>
      <trkpt lat="43.96797" lon="1.8853">
        <ele>236.14</ele>
        <time>2020-10-25T09:41:32Z</time>
      </trkpt>
      <trkpt lat="43.96776" lon="1.8854">
        <ele>237.1</ele>
        <time>2020-10-25T09:41:50Z</time>
      </trkpt>
      <trkpt lat="43.96754" lon="1.88551">
        <ele>238.06</ele>
        <time>2020-10-25T09:42:08Z</time>
      </trkpt>
      <trkpt lat="43.96733" lon="1.88562">
        <ele>239.02</ele>
        <time>2020-10-25T09:42:26Z</time>
      </trkpt>
      <trkpt lat="43.96716" lon="1.88569">
        <ele>239.99</ele>
        <time>2020-10-25T09:42:40Z</time>
      </trkpt>
      <trkpt lat="43.96693" lon="1.88574">
        <ele>240.95</ele>
        <time>2020-10-25T09:42:58Z</time>
      </trkpt>
      <trkpt lat="43.9667" lon="1.88574">
        <ele>242.39</ele>
        <time>2020-10-25T09:43:17Z</time>
      </trkpt>
      <trkpt lat="43.96649" lon="1.88575">
        <ele>243.83</ele>
        <time>2020-10-25T09:43:34Z</time>
      </trkpt>
      <trkpt lat="43.96627" lon="1.88574">
        <ele>246.23</ele>
        <time>2020-10-25T09:43:53Z</time>
      </trkpt>
      <trkpt lat="43.96606" lon="1.88573">
        <ele>248.64</ele>
        <time>2020-10-25T09:44:11Z</time>
      </trkpt>
      <trkpt lat="43.96588" lon="1.88574">
        <ele>251.04</ele>
        <time>2020-10-25T09:44:28Z</time>
      </trkpt>
      <trkpt lat="43.96568" lon="1.88575">
        <ele>252.96</ele>
        <time>2020-10-25T09:44:46Z</time>
      </trkpt>
      <trkpt lat="43.96553" lon="1.88575">
        <ele>253.44</ele>
        <time>2020-10-25T09:45:03Z</time>
      </trkpt>
      <trkpt lat="43.96552" lon="1.88576">
        <ele>253.44</ele>
        <time>2020-10-25T09:45:12Z</time>
      </trkpt>
      <trkpt lat="43.9655" lon="1.88577">
        <ele>253.44</ele>
        <time>2020-10-25T09:45:27Z</time>
      </trkpt>
      <trkpt lat="43.96552" lon="1.88578">
        <ele>253.44</ele>
        <time>2020-10-25T09:45:43Z</time>
      </trkpt>
      <trkpt lat="43.96552" lon="1.88574">
        <ele>253.44</ele>
        <time>2020-10-25T09:46:10Z</time>
      </trkpt>
      <trkpt lat="43.96553" lon="1.88569">
        <ele>253.44</ele>
        <time>2020-10-25T09:46:14Z</time>
      </trkpt>
      <trkpt lat="43.96555" lon="1.88558">
        <ele>252</ele>
        <time>2020-10-25T09:46:21Z</time>
      </trkpt>
      <trkpt lat="43.96557" lon="1.88547">
        <ele>251.52</ele>
        <time>2020-10-25T09:46:28Z</time>
      </trkpt>
      <trkpt lat="43.96557" lon="1.88543">
        <ele>251.52</ele>
        <time>2020-10-25T09:46:36Z</time>
      </trkpt>
      <trkpt lat="43.96558" lon="1.88538">
        <ele>250.56</ele>
        <time>2020-10-25T09:46:49Z</time>
      </trkpt>
      <trkpt lat="43.96558" lon="1.88536">
        <ele>250.56</ele>
        <time>2020-10-25T09:47:08Z</time>
      </trkpt>
      <trkpt lat="43.96558" lon="1.88541">
        <ele>250.56</ele>
        <time>2020-10-25T09:47:17Z</time>
      </trkpt>
      <trkpt lat="43.96553" lon="1.88566">
        <ele>252</ele>
        <time>2020-10-25T09:47:33Z</time>
      </trkpt>
      <trkpt lat="43.96549" lon="1.88574">
        <ele>252</ele>
        <time>2020-10-25T09:47:46Z</time>
      </trkpt>
      <trkpt lat="43.9655" lon="1.88572">
        <ele>252</ele>
        <time>2020-10-25T09:48:05Z</time>
      </trkpt>
      <trkpt lat="43.96549" lon="1.88575">
        <ele>252</ele>
        <time>2020-10-25T09:48:10Z</time>
      </trkpt>
      <trkpt lat="43.96545" lon="1.8858">
        <ele>252.48</ele>
        <time>2020-10-25T09:48:18Z</time>
      </trkpt>
      <trkpt lat="43.96518" lon="1.88576">
        <ele>252.48</ele>
        <time>2020-10-25T09:48:39Z</time>
      </trkpt>
      <trkpt lat="43.96494" lon="1.88572">
        <ele>252.96</ele>
        <time>2020-10-25T09:48:56Z</time>
      </trkpt>
      <trkpt lat="43.96474" lon="1.8857">
        <ele>253.44</ele>
        <time>2020-10-25T09:49:11Z</time>
      </trkpt>
      <trkpt lat="43.96454" lon="1.88568">
        <ele>254.41</ele>
        <time>2020-10-25T09:49:27Z</time>
      </trkpt>
      <trkpt lat="43.96439" lon="1.88566">
        <ele>255.37</ele>
        <time>2020-10-25T09:49:42Z</time>
      </trkpt>
      <trkpt lat="43.96414" lon="1.88566">
        <ele>256.81</ele>
        <time>2020-10-25T09:50:00Z</time>
      </trkpt>
      <trkpt lat="43.9639" lon="1.88572">
        <ele>258.25</ele>
        <time>2020-10-25T09:50:18Z</time>
      </trkpt>
      <trkpt lat="43.96367" lon="1.8858">
        <ele>259.69</ele>
        <time>2020-10-25T09:50:36Z</time>
      </trkpt>
      <trkpt lat="43.96344" lon="1.88593">
        <ele>261.14</ele>
        <time>2020-10-25T09:50:55Z</time>
      </trkpt>
      <trkpt lat="43.96323" lon="1.88602">
        <ele>263.06</ele>
        <time>2020-10-25T09:51:12Z</time>
      </trkpt>
      <trkpt lat="43.96302" lon="1.88611">
        <ele>263.54</ele>
        <time>2020-10-25T09:51:29Z</time>
      </trkpt>
      <trkpt lat="43.96293" lon="1.88616">
        <ele>263.54</ele>
        <time>2020-10-25T09:51:36Z</time>
      </trkpt>
      <trkpt lat="43.96291" lon="1.88618">
        <ele>263.54</ele>
        <time>2020-10-25T09:51:41Z</time>
      </trkpt>
      <trkpt lat="43.96269" lon="1.88604">
        <ele>263.54</ele>
        <time>2020-10-25T09:51:59Z</time>
      </trkpt>
      <trkpt lat="43.96248" lon="1.8859">
        <ele>263.54</ele>
        <time>2020-10-25T09:52:16Z</time>
      </trkpt>
      <trkpt lat="43.96234" lon="1.88584">
        <ele>263.54</ele>
        <time>2020-10-25T09:52:29Z</time>
      </trkpt>
      <trkpt lat="43.96233" lon="1.88585">
        <ele>263.54</ele>
        <time>2020-10-25T09:52:30Z</time>
      </trkpt>
      <trkpt lat="43.96232" lon="1.88586">
        <ele>263.54</ele>
        <time>2020-10-25T09:52:31Z</time>
      </trkpt>
      <trkpt lat="43.96231" lon="1.88589">
        <ele>263.54</ele>
        <time>2020-10-25T09:52:44Z</time>
      </trkpt>
      <trkpt lat="43.96224" lon="1.88582">
        <ele>263.54</ele>
        <time>2020-10-25T09:52:56Z</time>
      </trkpt>
      <trkpt lat="43.96216" lon="1.88578">
        <ele>263.54</ele>
        <time>2020-10-25T09:53:07Z</time>
      </trkpt>
      <trkpt lat="43.96214" lon="1.88584">
        <ele>262.58</ele>
        <time>2020-10-25T09:53:19Z</time>
      </trkpt>
      <trkpt lat="43.96217" lon="1.88591">
        <ele>262.1</ele>
        <time>2020-10-25T09:53:32Z</time>
      </trkpt>
      <trkpt lat="43.9622" lon="1.88594">
        <ele>261.14</ele>
        <time>2020-10-25T09:53:38Z</time>
      </trkpt>
      <trkpt lat="43.96221" lon="1.88595">
        <ele>261.14</ele>
        <time>2020-10-25T09:53:39Z</time>
      </trkpt>
      <trkpt lat="43.96222" lon="1.88596">
        <ele>261.14</ele>
        <time>2020-10-25T09:53:40Z</time>
      </trkpt>
      <trkpt lat="43.96227" lon="1.88606">
        <ele>259.21</ele>
        <time>2020-10-25T09:53:53Z</time>
      </trkpt>
      <trkpt lat="43.96224" lon="1.88622">
        <ele>256.81</ele>
        <time>2020-10-25T09:54:08Z</time>
      </trkpt>
      <trkpt lat="43.96222" lon="1.88627">
        <ele>256.33</ele>
        <time>2020-10-25T09:54:13Z</time>
      </trkpt>
      <trkpt lat="43.96219" lon="1.88631">
        <ele>255.37</ele>
        <time>2020-10-25T09:54:26Z</time>
      </trkpt>
      <trkpt lat="43.96218" lon="1.88633">
        <ele>255.37</ele>
        <time>2020-10-25T09:54:41Z</time>
      </trkpt>
      <trkpt lat="43.96207" lon="1.8865">
        <ele>253.93</ele>
        <time>2020-10-25T09:54:57Z</time>
      </trkpt>
      <trkpt lat="43.96193" lon="1.8867">
        <ele>252</ele>
        <time>2020-10-25T09:55:14Z</time>
      </trkpt>
      <trkpt lat="43.96177" lon="1.8869">
        <ele>249.6</ele>
        <time>2020-10-25T09:55:30Z</time>
      </trkpt>
      <trkpt lat="43.96165" lon="1.88709">
        <ele>247.2</ele>
        <time>2020-10-25T09:55:44Z</time>
      </trkpt>
      <trkpt lat="43.96161" lon="1.88712">
        <ele>246.72</ele>
        <time>2020-10-25T09:55:48Z</time>
      </trkpt>
      <trkpt lat="43.96144" lon="1.88738">
        <ele>243.83</ele>
        <time>2020-10-25T09:56:07Z</time>
      </trkpt>
      <trkpt lat="43.96127" lon="1.88754">
        <ele>241.91</ele>
        <time>2020-10-25T09:56:23Z</time>
      </trkpt>
      <trkpt lat="43.96115" lon="1.88769">
        <ele>240.47</ele>
        <time>2020-10-25T09:56:37Z</time>
      </trkpt>
      <trkpt lat="43.96104" lon="1.88781">
        <ele>239.51</ele>
        <time>2020-10-25T09:56:47Z</time>
      </trkpt>
      <trkpt lat="43.96087" lon="1.88796">
        <ele>238.06</ele>
        <time>2020-10-25T09:57:04Z</time>
      </trkpt>
      <trkpt lat="43.96062" lon="1.88813">
        <ele>236.14</ele>
        <time>2020-10-25T09:57:26Z</time>
      </trkpt>
      <trkpt lat="43.96052" lon="1.8882">
        <ele>235.18</ele>
        <time>2020-10-25T09:57:35Z</time>
      </trkpt>
      <trkpt lat="43.96033" lon="1.88831">
        <ele>233.74</ele>
        <time>2020-10-25T09:57:51Z</time>
      </trkpt>
      <trkpt lat="43.96012" lon="1.88841">
        <ele>231.33</ele>
        <time>2020-10-25T09:58:09Z</time>
      </trkpt>
      <trkpt lat="43.95992" lon="1.88851">
        <ele>228.93</ele>
        <time>2020-10-25T09:58:26Z</time>
      </trkpt>
      <trkpt lat="43.95978" lon="1.88864">
        <ele>227.49</ele>
        <time>2020-10-25T09:58:39Z</time>
      </trkpt>
      <trkpt lat="43.95962" lon="1.88883">
        <ele>226.53</ele>
        <time>2020-10-25T09:58:54Z</time>
      </trkpt>
      <trkpt lat="43.95944" lon="1.88908">
        <ele>226.05</ele>
        <time>2020-10-25T09:59:13Z</time>
      </trkpt>
      <trkpt lat="43.95927" lon="1.88929">
        <ele>225.09</ele>
        <time>2020-10-25T09:59:29Z</time>
      </trkpt>
      <trkpt lat="43.95912" lon="1.88948">
        <ele>224.12</ele>
        <time>2020-10-25T09:59:44Z</time>
      </trkpt>
      <trkpt lat="43.95895" lon="1.88965">
        <ele>223.16</ele>
        <time>2020-10-25T09:59:59Z</time>
      </trkpt>
      <trkpt lat="43.95879" lon="1.88982">
        <ele>221.72</ele>
        <time>2020-10-25T10:00:14Z</time>
      </trkpt>
      <trkpt lat="43.95863" lon="1.88998">
        <ele>220.76</ele>
        <time>2020-10-25T10:00:29Z</time>
      </trkpt>
      <trkpt lat="43.95845" lon="1.89013">
        <ele>220.28</ele>
        <time>2020-10-25T10:00:46Z</time>
      </trkpt>
      <trkpt lat="43.95838" lon="1.89013">
        <ele>220.28</ele>
        <time>2020-10-25T10:00:51Z</time>
      </trkpt>
      <trkpt lat="43.95814" lon="1.89016">
        <ele>219.8</ele>
        <time>2020-10-25T10:01:09Z</time>
      </trkpt>
      <trkpt lat="43.95798" lon="1.89019">
        <ele>219.32</ele>
        <time>2020-10-25T10:01:22Z</time>
      </trkpt>
      <trkpt lat="43.95777" lon="1.89022">
        <ele>217.88</ele>
        <time>2020-10-25T10:01:40Z</time>
      </trkpt>
      <trkpt lat="43.95773" lon="1.89022">
        <ele>217.88</ele>
        <time>2020-10-25T10:01:53Z</time>
      </trkpt>
      <trkpt lat="43.95773" lon="1.89022">
        <ele>217.88</ele>
        <time>2020-10-25T10:01:54Z</time>
      </trkpt>
      <trkpt lat="43.95772" lon="1.89016">
        <ele>217.88</ele>
        <time>2020-10-25T10:01:58Z</time>
      </trkpt>
      <trkpt lat="43.95768" lon="1.88996">
        <ele>217.88</ele>
        <time>2020-10-25T10:02:11Z</time>
      </trkpt>
      <trkpt lat="43.95761" lon="1.88971">
        <ele>217.4</ele>
        <time>2020-10-25T10:02:28Z</time>
      </trkpt>
      <trkpt lat="43.95759" lon="1.8896">
        <ele>217.4</ele>
        <time>2020-10-25T10:02:37Z</time>
      </trkpt>
      <trkpt lat="43.95758" lon="1.88958">
        <ele>217.4</ele>
        <time>2020-10-25T10:02:38Z</time>
      </trkpt>
      <trkpt lat="43.95754" lon="1.88958">
        <ele>217.4</ele>
        <time>2020-10-25T10:02:53Z</time>
      </trkpt>
      <trkpt lat="43.95754" lon="1.88954">
        <ele>218.36</ele>
        <time>2020-10-25T10:03:20Z</time>
      </trkpt>
      <trkpt lat="43.95752" lon="1.88938">
        <ele>219.8</ele>
        <time>2020-10-25T10:03:31Z</time>
      </trkpt>
      <trkpt lat="43.9576" lon="1.88911">
        <ele>222.68</ele>
        <time>2020-10-25T10:03:50Z</time>
      </trkpt>
      <trkpt lat="43.95764" lon="1.88891">
        <ele>224.61</ele>
        <time>2020-10-25T10:04:05Z</time>
      </trkpt>
      <trkpt lat="43.9577" lon="1.88866">
        <ele>226.53</ele>
        <time>2020-10-25T10:04:21Z</time>
      </trkpt>
      <trkpt lat="43.95771" lon="1.88861">
        <ele>227.01</ele>
        <time>2020-10-25T10:04:24Z</time>
      </trkpt>
      <trkpt lat="43.95779" lon="1.88833">
        <ele>228.93</ele>
        <time>2020-10-25T10:04:44Z</time>
      </trkpt>
      <trkpt lat="43.95787" lon="1.88807">
        <ele>230.85</ele>
        <time>2020-10-25T10:05:03Z</time>
      </trkpt>
      <trkpt lat="43.95798" lon="1.88781">
        <ele>232.78</ele>
        <time>2020-10-25T10:05:24Z</time>
      </trkpt>
      <trkpt lat="43.95799" lon="1.88775">
        <ele>233.26</ele>
        <time>2020-10-25T10:05:29Z</time>
      </trkpt>
      <trkpt lat="43.95803" lon="1.8875">
        <ele>234.7</ele>
        <time>2020-10-25T10:05:44Z</time>
      </trkpt>
      <trkpt lat="43.95797" lon="1.88729">
        <ele>236.14</ele>
        <time>2020-10-25T10:05:58Z</time>
      </trkpt>
      <trkpt lat="43.95784" lon="1.8871">
        <ele>237.58</ele>
        <time>2020-10-25T10:06:13Z</time>
      </trkpt>
      <trkpt lat="43.95767" lon="1.88697">
        <ele>238.06</ele>
        <time>2020-10-25T10:06:28Z</time>
      </trkpt>
      <trkpt lat="43.95751" lon="1.88681">
        <ele>239.51</ele>
        <time>2020-10-25T10:06:44Z</time>
      </trkpt>
      <trkpt lat="43.95734" lon="1.88667">
        <ele>241.43</ele>
        <time>2020-10-25T10:07:01Z</time>
      </trkpt>
      <trkpt lat="43.95722" lon="1.88655">
        <ele>241.91</ele>
        <time>2020-10-25T10:07:14Z</time>
      </trkpt>
      <trkpt lat="43.95718" lon="1.88645">
        <ele>242.39</ele>
        <time>2020-10-25T10:07:21Z</time>
      </trkpt>
      <trkpt lat="43.95714" lon="1.88638">
        <ele>242.39</ele>
        <time>2020-10-25T10:07:32Z</time>
      </trkpt>
      <trkpt lat="43.9571" lon="1.88637">
        <ele>242.39</ele>
        <time>2020-10-25T10:07:44Z</time>
      </trkpt>
      <trkpt lat="43.95709" lon="1.88636">
        <ele>242.39</ele>
        <time>2020-10-25T10:07:48Z</time>
      </trkpt>
      <trkpt lat="43.957" lon="1.88642">
        <ele>242.39</ele>
        <time>2020-10-25T10:07:55Z</time>
      </trkpt>
      <trkpt lat="43.95696" lon="1.88648">
        <ele>240.95</ele>
        <time>2020-10-25T10:07:59Z</time>
      </trkpt>
      <trkpt lat="43.95683" lon="1.88677">
        <ele>239.51</ele>
        <time>2020-10-25T10:08:16Z</time>
      </trkpt>
      <trkpt lat="43.9567" lon="1.88702">
        <ele>239.02</ele>
        <time>2020-10-25T10:08:32Z</time>
      </trkpt>
      <trkpt lat="43.95656" lon="1.88725">
        <ele>239.02</ele>
        <time>2020-10-25T10:08:49Z</time>
      </trkpt>
      <trkpt lat="43.95654" lon="1.88727">
        <ele>239.02</ele>
        <time>2020-10-25T10:08:51Z</time>
      </trkpt>
      <trkpt lat="43.95648" lon="1.8873">
        <ele>239.02</ele>
        <time>2020-10-25T10:08:57Z</time>
      </trkpt>
      <trkpt lat="43.95648" lon="1.88736">
        <ele>239.02</ele>
        <time>2020-10-25T10:09:08Z</time>
      </trkpt>
      <trkpt lat="43.95647" lon="1.88739">
        <ele>239.02</ele>
        <time>2020-10-25T10:09:18Z</time>
      </trkpt>
      <trkpt lat="43.95643" lon="1.88744">
        <ele>239.02</ele>
        <time>2020-10-25T10:09:31Z</time>
      </trkpt>
      <trkpt lat="43.9563" lon="1.88762">
        <ele>238.54</ele>
        <time>2020-10-25T10:09:45Z</time>
      </trkpt>
      <trkpt lat="43.95613" lon="1.88786">
        <ele>238.54</ele>
        <time>2020-10-25T10:10:03Z</time>
      </trkpt>
      <trkpt lat="43.95593" lon="1.8881">
        <ele>238.54</ele>
        <time>2020-10-25T10:10:22Z</time>
      </trkpt>
      <trkpt lat="43.95576" lon="1.8883">
        <ele>238.54</ele>
        <time>2020-10-25T10:10:39Z</time>
      </trkpt>
      <trkpt lat="43.95559" lon="1.88848">
        <ele>238.54</ele>
        <time>2020-10-25T10:10:55Z</time>
      </trkpt>
      <trkpt lat="43.95538" lon="1.88869">
        <ele>238.54</ele>
        <time>2020-10-25T10:11:14Z</time>
      </trkpt>
      <trkpt lat="43.95522" lon="1.88889">
        <ele>237.58</ele>
        <time>2020-10-25T10:11:31Z</time>
      </trkpt>
      <trkpt lat="43.95507" lon="1.88909">
        <ele>236.62</ele>
        <time>2020-10-25T10:11:47Z</time>
      </trkpt>
      <trkpt lat="43.95485" lon="1.88922">
        <ele>235.66</ele>
        <time>2020-10-25T10:12:06Z</time>
      </trkpt>
      <trkpt lat="43.9547" lon="1.88915">
        <ele>234.7</ele>
        <time>2020-10-25T10:12:19Z</time>
      </trkpt>
      <trkpt lat="43.9545" lon="1.88898">
        <ele>232.78</ele>
        <time>2020-10-25T10:12:36Z</time>
      </trkpt>
      <trkpt lat="43.95436" lon="1.88891">
        <ele>231.33</ele>
        <time>2020-10-25T10:12:49Z</time>
      </trkpt>
      <trkpt lat="43.95433" lon="1.88891">
        <ele>230.85</ele>
        <time>2020-10-25T10:12:51Z</time>
      </trkpt>
      <trkpt lat="43.95413" lon="1.88895">
        <ele>229.41</ele>
        <time>2020-10-25T10:13:06Z</time>
      </trkpt>
      <trkpt lat="43.95396" lon="1.88921">
        <ele>228.93</ele>
        <time>2020-10-25T10:13:25Z</time>
      </trkpt>
      <trkpt lat="43.95387" lon="1.88944">
        <ele>228.93</ele>
        <time>2020-10-25T10:13:40Z</time>
      </trkpt>
      <trkpt lat="43.95372" lon="1.88959">
        <ele>228.93</ele>
        <time>2020-10-25T10:13:56Z</time>
      </trkpt>
      <trkpt lat="43.95358" lon="1.88987">
        <ele>228.93</ele>
        <time>2020-10-25T10:14:14Z</time>
      </trkpt>
      <trkpt lat="43.95351" lon="1.89015">
        <ele>227.97</ele>
        <time>2020-10-25T10:14:31Z</time>
      </trkpt>
      <trkpt lat="43.95345" lon="1.89043">
        <ele>227.01</ele>
        <time>2020-10-25T10:14:47Z</time>
      </trkpt>
      <trkpt lat="43.95342" lon="1.89057">
        <ele>227.01</ele>
        <time>2020-10-25T10:15:01Z</time>
      </trkpt>
      <trkpt lat="43.95343" lon="1.89068">
        <ele>227.01</ele>
        <time>2020-10-25T10:15:14Z</time>
      </trkpt>
      <trkpt lat="43.95343" lon="1.89068">
        <ele>227.01</ele>
        <time>2020-10-25T10:15:26Z</time>
      </trkpt>
      <trkpt lat="43.95321" lon="1.89079">
        <ele>226.05</ele>
        <time>2020-10-25T10:15:46Z</time>
      </trkpt>
      <trkpt lat="43.9532" lon="1.8908">
        <ele>226.05</ele>
        <time>2020-10-25T10:15:47Z</time>
      </trkpt>
      <trkpt lat="43.95314" lon="1.89087">
        <ele>225.57</ele>
        <time>2020-10-25T10:15:54Z</time>
      </trkpt>
      <trkpt lat="43.95304" lon="1.89086">
        <ele>225.09</ele>
        <time>2020-10-25T10:16:10Z</time>
      </trkpt>
      <trkpt lat="43.95307" lon="1.89092">
        <ele>225.09</ele>
        <time>2020-10-25T10:16:16Z</time>
      </trkpt>
      <trkpt lat="43.95313" lon="1.89099">
        <ele>225.57</ele>
        <time>2020-10-25T10:16:32Z</time>
      </trkpt>
      <trkpt lat="43.95314" lon="1.89097">
        <ele>225.57</ele>
        <time>2020-10-25T10:16:44Z</time>
      </trkpt>
      <trkpt lat="43.95309" lon="1.89097">
        <ele>225.57</ele>
        <time>2020-10-25T10:16:57Z</time>
      </trkpt>
      <trkpt lat="43.95314" lon="1.89098">
        <ele>225.57</ele>
        <time>2020-10-25T10:17:18Z</time>
      </trkpt>
      <trkpt lat="43.95312" lon="1.89098">
        <ele>225.57</ele>
        <time>2020-10-25T10:17:34Z</time>
      </trkpt>
      <trkpt lat="43.95307" lon="1.89106">
        <ele>225.57</ele>
        <time>2020-10-25T10:17:48Z</time>
      </trkpt>
      <trkpt lat="43.95307" lon="1.89108">
        <ele>225.57</ele>
        <time>2020-10-25T10:18:06Z</time>
      </trkpt>
      <trkpt lat="43.95306" lon="1.89111">
        <ele>225.57</ele>
        <time>2020-10-25T10:18:10Z</time>
      </trkpt>
      <trkpt lat="43.95307" lon="1.89118">
        <ele>225.57</ele>
        <time>2020-10-25T10:18:14Z</time>
      </trkpt>
      <trkpt lat="43.95307" lon="1.89132">
        <ele>224.12</ele>
        <time>2020-10-25T10:18:27Z</time>
      </trkpt>
      <trkpt lat="43.95308" lon="1.89137">
        <ele>223.64</ele>
        <time>2020-10-25T10:18:42Z</time>
      </trkpt>
      <trkpt lat="43.95305" lon="1.89129">
        <ele>223.16</ele>
        <time>2020-10-25T10:18:56Z</time>
      </trkpt>
      <trkpt lat="43.953" lon="1.89131">
        <ele>222.68</ele>
        <time>2020-10-25T10:19:12Z</time>
      </trkpt>
      <trkpt lat="43.95299" lon="1.89134">
        <ele>222.2</ele>
        <time>2020-10-25T10:19:36Z</time>
      </trkpt>
      <trkpt lat="43.95302" lon="1.89148">
        <ele>220.28</ele>
        <time>2020-10-25T10:19:50Z</time>
      </trkpt>
      <trkpt lat="43.95303" lon="1.89148">
        <ele>220.28</ele>
        <time>2020-10-25T10:19:52Z</time>
      </trkpt>
      <trkpt lat="43.95311" lon="1.89148">
        <ele>218.84</ele>
        <time>2020-10-25T10:20:05Z</time>
      </trkpt>
      <trkpt lat="43.95304" lon="1.89151">
        <ele>218.36</ele>
        <time>2020-10-25T10:20:19Z</time>
      </trkpt>
      <trkpt lat="43.95303" lon="1.89151">
        <ele>218.36</ele>
        <time>2020-10-25T10:20:20Z</time>
      </trkpt>
      <trkpt lat="43.95295" lon="1.89155">
        <ele>216.91</ele>
        <time>2020-10-25T10:20:28Z</time>
      </trkpt>
      <trkpt lat="43.95289" lon="1.89156">
        <ele>215.95</ele>
        <time>2020-10-25T10:20:43Z</time>
      </trkpt>
      <trkpt lat="43.95287" lon="1.89153">
        <ele>215.47</ele>
        <time>2020-10-25T10:20:51Z</time>
      </trkpt>
      <trkpt lat="43.95277" lon="1.89152">
        <ele>214.03</ele>
        <time>2020-10-25T10:21:05Z</time>
      </trkpt>
      <trkpt lat="43.95275" lon="1.8915">
        <ele>214.03</ele>
        <time>2020-10-25T10:21:15Z</time>
      </trkpt>
      <trkpt lat="43.95277" lon="1.89152">
        <ele>214.03</ele>
        <time>2020-10-25T10:21:19Z</time>
      </trkpt>
      <trkpt lat="43.95281" lon="1.89156">
        <ele>214.03</ele>
        <time>2020-10-25T10:21:24Z</time>
      </trkpt>
      <trkpt lat="43.95287" lon="1.89159">
        <ele>215.47</ele>
        <time>2020-10-25T10:21:29Z</time>
      </trkpt>
      <trkpt lat="43.95288" lon="1.89152">
        <ele>215.95</ele>
        <time>2020-10-25T10:21:33Z</time>
      </trkpt>
      <trkpt lat="43.95286" lon="1.89146">
        <ele>216.43</ele>
        <time>2020-10-25T10:21:37Z</time>
      </trkpt>
      <trkpt lat="43.95284" lon="1.89133">
        <ele>216.91</ele>
        <time>2020-10-25T10:21:51Z</time>
      </trkpt>
      <trkpt lat="43.95284" lon="1.89134">
        <ele>216.91</ele>
        <time>2020-10-25T10:21:52Z</time>
      </trkpt>
      <trkpt lat="43.95287" lon="1.89145">
        <ele>217.4</ele>
        <time>2020-10-25T10:21:59Z</time>
      </trkpt>
      <trkpt lat="43.95289" lon="1.89152">
        <ele>216.43</ele>
        <time>2020-10-25T10:22:04Z</time>
      </trkpt>
      <trkpt lat="43.95284" lon="1.89155">
        <ele>215.47</ele>
        <time>2020-10-25T10:22:09Z</time>
      </trkpt>
      <trkpt lat="43.95271" lon="1.89152">
        <ele>214.03</ele>
        <time>2020-10-25T10:22:19Z</time>
      </trkpt>
      <trkpt lat="43.95265" lon="1.8915">
        <ele>213.07</ele>
        <time>2020-10-25T10:22:25Z</time>
      </trkpt>
      <trkpt lat="43.95257" lon="1.8914">
        <ele>212.59</ele>
        <time>2020-10-25T10:22:39Z</time>
      </trkpt>
      <trkpt lat="43.95253" lon="1.89138">
        <ele>211.63</ele>
        <time>2020-10-25T10:22:53Z</time>
      </trkpt>
      <trkpt lat="43.95252" lon="1.89138">
        <ele>211.63</ele>
        <time>2020-10-25T10:22:57Z</time>
      </trkpt>
      <trkpt lat="43.9523" lon="1.89137">
        <ele>209.22</ele>
        <time>2020-10-25T10:23:14Z</time>
      </trkpt>
      <trkpt lat="43.95211" lon="1.89133">
        <ele>205.86</ele>
        <time>2020-10-25T10:23:28Z</time>
      </trkpt>
      <trkpt lat="43.95195" lon="1.8913">
        <ele>202.98</ele>
        <time>2020-10-25T10:23:43Z</time>
      </trkpt>
      <trkpt lat="43.95173" lon="1.89126">
        <ele>200.09</ele>
        <time>2020-10-25T10:24:01Z</time>
      </trkpt>
      <trkpt lat="43.95155" lon="1.89124">
        <ele>197.69</ele>
        <time>2020-10-25T10:24:19Z</time>
      </trkpt>
      <trkpt lat="43.95154" lon="1.89125">
        <ele>197.69</ele>
        <time>2020-10-25T10:24:36Z</time>
      </trkpt>
      <trkpt lat="43.95145" lon="1.89127">
        <ele>197.69</ele>
        <time>2020-10-25T10:24:50Z</time>
      </trkpt>
      <trkpt lat="43.95142" lon="1.89129">
        <ele>196.73</ele>
        <time>2020-10-25T10:25:07Z</time>
      </trkpt>
      <trkpt lat="43.95142" lon="1.89128">
        <ele>196.73</ele>
        <time>2020-10-25T10:25:11Z</time>
      </trkpt>
      <trkpt lat="43.95141" lon="1.89133">
        <ele>196.73</ele>
        <time>2020-10-25T10:25:14Z</time>
      </trkpt>
      <trkpt lat="43.95135" lon="1.89172">
        <ele>196.73</ele>
        <time>2020-10-25T10:25:35Z</time>
      </trkpt>
      <trkpt lat="43.95131" lon="1.89202">
        <ele>196.25</ele>
        <time>2020-10-25T10:25:52Z</time>
      </trkpt>
      <trkpt lat="43.95126" lon="1.89234">
        <ele>195.77</ele>
        <time>2020-10-25T10:26:10Z</time>
      </trkpt>
      <trkpt lat="43.9512" lon="1.89267">
        <ele>195.77</ele>
        <time>2020-10-25T10:26:28Z</time>
      </trkpt>
      <trkpt lat="43.95116" lon="1.89291">
        <ele>195.28</ele>
        <time>2020-10-25T10:26:43Z</time>
      </trkpt>
      <trkpt lat="43.9511" lon="1.893">
        <ele>195.28</ele>
        <time>2020-10-25T10:27:00Z</time>
      </trkpt>
      <trkpt lat="43.95106" lon="1.89302">
        <ele>195.28</ele>
        <time>2020-10-25T10:27:06Z</time>
      </trkpt>
      <trkpt lat="43.95087" lon="1.89314">
        <ele>195.28</ele>
        <time>2020-10-25T10:27:25Z</time>
      </trkpt>
      <trkpt lat="43.95066" lon="1.89337">
        <ele>196.73</ele>
        <time>2020-10-25T10:27:45Z</time>
      </trkpt>
      <trkpt lat="43.95049" lon="1.89358">
        <ele>197.21</ele>
        <time>2020-10-25T10:28:02Z</time>
      </trkpt>
      <trkpt lat="43.95028" lon="1.89382">
        <ele>197.69</ele>
        <time>2020-10-25T10:28:23Z</time>
      </trkpt>
      <trkpt lat="43.95009" lon="1.89403">
        <ele>198.65</ele>
        <time>2020-10-25T10:28:40Z</time>
      </trkpt>
      <trkpt lat="43.94993" lon="1.89423">
        <ele>199.61</ele>
        <time>2020-10-25T10:28:58Z</time>
      </trkpt>
      <trkpt lat="43.94977" lon="1.89444">
        <ele>200.57</ele>
        <time>2020-10-25T10:29:15Z</time>
      </trkpt>
      <trkpt lat="43.94965" lon="1.89457">
        <ele>201.53</ele>
        <time>2020-10-25T10:29:27Z</time>
      </trkpt>
      <trkpt lat="43.94952" lon="1.89475">
        <ele>202.49</ele>
        <time>2020-10-25T10:29:41Z</time>
      </trkpt>
      <trkpt lat="43.9494" lon="1.89496">
        <ele>202.98</ele>
        <time>2020-10-25T10:29:56Z</time>
      </trkpt>
      <trkpt lat="43.94928" lon="1.89518">
        <ele>203.46</ele>
        <time>2020-10-25T10:30:10Z</time>
      </trkpt>
      <trkpt lat="43.94914" lon="1.89542">
        <ele>203.94</ele>
        <time>2020-10-25T10:30:27Z</time>
      </trkpt>
      <trkpt lat="43.94896" lon="1.89566">
        <ele>203.94</ele>
        <time>2020-10-25T10:30:46Z</time>
      </trkpt>
      <trkpt lat="43.94875" lon="1.89584">
        <ele>204.42</ele>
        <time>2020-10-25T10:31:04Z</time>
      </trkpt>
      <trkpt lat="43.94852" lon="1.89592">
        <ele>204.9</ele>
        <time>2020-10-25T10:31:23Z</time>
      </trkpt>
      <trkpt lat="43.94829" lon="1.89598">
        <ele>205.38</ele>
        <time>2020-10-25T10:31:42Z</time>
      </trkpt>
      <trkpt lat="43.94808" lon="1.89596">
        <ele>205.86</ele>
        <time>2020-10-25T10:31:59Z</time>
      </trkpt>
      <trkpt lat="43.94786" lon="1.89596">
        <ele>206.82</ele>
        <time>2020-10-25T10:32:18Z</time>
      </trkpt>
      <trkpt lat="43.94767" lon="1.89599">
        <ele>207.78</ele>
        <time>2020-10-25T10:32:33Z</time>
      </trkpt>
      <trkpt lat="43.94745" lon="1.89601">
        <ele>209.22</ele>
        <time>2020-10-25T10:32:51Z</time>
      </trkpt>
      <trkpt lat="43.94728" lon="1.89605">
        <ele>210.67</ele>
        <time>2020-10-25T10:33:05Z</time>
      </trkpt>
      <trkpt lat="43.94712" lon="1.8961">
        <ele>212.59</ele>
        <time>2020-10-25T10:33:20Z</time>
      </trkpt>
      <trkpt lat="43.94699" lon="1.89615">
        <ele>213.55</ele>
        <time>2020-10-25T10:33:33Z</time>
      </trkpt>
      <trkpt lat="43.94685" lon="1.89625">
        <ele>215.47</ele>
        <time>2020-10-25T10:33:47Z</time>
      </trkpt>
      <trkpt lat="43.9468" lon="1.89632">
        <ele>215.95</ele>
        <time>2020-10-25T10:34:01Z</time>
      </trkpt>
      <trkpt lat="43.94672" lon="1.89638">
        <ele>217.4</ele>
        <time>2020-10-25T10:34:15Z</time>
      </trkpt>
      <trkpt lat="43.94663" lon="1.8964">
        <ele>218.84</ele>
        <time>2020-10-25T10:34:28Z</time>
      </trkpt>
      <trkpt lat="43.94649" lon="1.89643">
        <ele>220.76</ele>
        <time>2020-10-25T10:34:43Z</time>
      </trkpt>
      <trkpt lat="43.94634" lon="1.8965">
        <ele>222.68</ele>
        <time>2020-10-25T10:34:59Z</time>
      </trkpt>
      <trkpt lat="43.94623" lon="1.8966">
        <ele>224.61</ele>
        <time>2020-10-25T10:35:12Z</time>
      </trkpt>
      <trkpt lat="43.9461" lon="1.89672">
        <ele>226.53</ele>
        <time>2020-10-25T10:35:27Z</time>
      </trkpt>
      <trkpt lat="43.94601" lon="1.89681">
        <ele>227.97</ele>
        <time>2020-10-25T10:35:38Z</time>
      </trkpt>
      <trkpt lat="43.9459" lon="1.89698">
        <ele>230.85</ele>
        <time>2020-10-25T10:35:54Z</time>
      </trkpt>
      <trkpt lat="43.94581" lon="1.8971">
        <ele>232.3</ele>
        <time>2020-10-25T10:36:07Z</time>
      </trkpt>
      <trkpt lat="43.94567" lon="1.89723">
        <ele>234.7</ele>
        <time>2020-10-25T10:36:24Z</time>
      </trkpt>
      <trkpt lat="43.94555" lon="1.89733">
        <ele>236.62</ele>
        <time>2020-10-25T10:36:38Z</time>
      </trkpt>
      <trkpt lat="43.94538" lon="1.89739">
        <ele>238.54</ele>
        <time>2020-10-25T10:36:52Z</time>
      </trkpt>
      <trkpt lat="43.94533" lon="1.89741">
        <ele>239.02</ele>
        <time>2020-10-25T10:36:57Z</time>
      </trkpt>
      <trkpt lat="43.94514" lon="1.89746">
        <ele>239.99</ele>
        <time>2020-10-25T10:37:14Z</time>
      </trkpt>
      <trkpt lat="43.94495" lon="1.89757">
        <ele>241.43</ele>
        <time>2020-10-25T10:37:29Z</time>
      </trkpt>
      <trkpt lat="43.94476" lon="1.89767">
        <ele>242.39</ele>
        <time>2020-10-25T10:37:47Z</time>
      </trkpt>
      <trkpt lat="43.94471" lon="1.89771">
        <ele>242.87</ele>
        <time>2020-10-25T10:37:53Z</time>
      </trkpt>
      <trkpt lat="43.94456" lon="1.89776">
        <ele>243.83</ele>
        <time>2020-10-25T10:38:10Z</time>
      </trkpt>
      <trkpt lat="43.94454" lon="1.89776">
        <ele>243.83</ele>
        <time>2020-10-25T10:38:15Z</time>
      </trkpt>
      <trkpt lat="43.94451" lon="1.89779">
        <ele>244.31</ele>
        <time>2020-10-25T10:38:29Z</time>
      </trkpt>
      <trkpt lat="43.94454" lon="1.89781">
        <ele>243.83</ele>
        <time>2020-10-25T10:38:41Z</time>
      </trkpt>
      <trkpt lat="43.94453" lon="1.89786">
        <ele>244.31</ele>
        <time>2020-10-25T10:38:52Z</time>
      </trkpt>
      <trkpt lat="43.94454" lon="1.89787">
        <ele>244.31</ele>
        <time>2020-10-25T10:39:09Z</time>
      </trkpt>
      <trkpt lat="43.94454" lon="1.89786">
        <ele>244.31</ele>
        <time>2020-10-25T10:39:27Z</time>
      </trkpt>
      <trkpt lat="43.94453" lon="1.89785">
        <ele>244.31</ele>
        <time>2020-10-25T10:39:44Z</time>
      </trkpt>
      <trkpt lat="43.94453" lon="1.89786">
        <ele>244.31</ele>
        <time>2020-10-25T10:39:54Z</time>
      </trkpt>
      <trkpt lat="43.94453" lon="1.89786">
        <ele>244.31</ele>
        <time>2020-10-25T10:40:04Z</time>
      </trkpt>
      <trkpt lat="43.94453" lon="1.89786">
        <ele>242.87</ele>
        <time>2020-10-25T10:40:26Z</time>
      </trkpt>
      <trkpt lat="43.94453" lon="1.89786">
        <ele>242.87</ele>
        <time>2020-10-25T10:40:27Z</time>
      </trkpt>
      <trkpt lat="43.94452" lon="1.89786">
        <ele>243.83</ele>
        <time>2020-10-25T10:40:40Z</time>
      </trkpt>
      <trkpt lat="43.94453" lon="1.89785">
        <ele>243.83</ele>
        <time>2020-10-25T10:40:55Z</time>
      </trkpt>
      <trkpt lat="43.94452" lon="1.89787">
        <ele>243.83</ele>
        <time>2020-10-25T10:41:06Z</time>
      </trkpt>
      <trkpt lat="43.94452" lon="1.89785">
        <ele>244.31</ele>
        <time>2020-10-25T10:41:21Z</time>
      </trkpt>
      <trkpt lat="43.94452" lon="1.89786">
        <ele>244.31</ele>
        <time>2020-10-25T10:41:25Z</time>
      </trkpt>
      <trkpt lat="43.94448" lon="1.89798">
        <ele>244.31</ele>
        <time>2020-10-25T10:41:39Z</time>
      </trkpt>
      <trkpt lat="43.94451" lon="1.89808">
        <ele>243.35</ele>
        <time>2020-10-25T10:41:45Z</time>
      </trkpt>
      <trkpt lat="43.94449" lon="1.89843">
        <ele>241.91</ele>
        <time>2020-10-25T10:42:05Z</time>
      </trkpt>
      <trkpt lat="43.94441" lon="1.89876">
        <ele>240.95</ele>
        <time>2020-10-25T10:42:25Z</time>
      </trkpt>
      <trkpt lat="43.94428" lon="1.89903">
        <ele>239.99</ele>
        <time>2020-10-25T10:42:43Z</time>
      </trkpt>
      <trkpt lat="43.94417" lon="1.89928">
        <ele>239.99</ele>
        <time>2020-10-25T10:42:59Z</time>
      </trkpt>
      <trkpt lat="43.94408" lon="1.89958">
        <ele>239.02</ele>
        <time>2020-10-25T10:43:16Z</time>
      </trkpt>
      <trkpt lat="43.9442" lon="1.89979">
        <ele>238.06</ele>
        <time>2020-10-25T10:43:32Z</time>
      </trkpt>
      <trkpt lat="43.94443" lon="1.9">
        <ele>237.1</ele>
        <time>2020-10-25T10:43:52Z</time>
      </trkpt>
      <trkpt lat="43.94456" lon="1.90032">
        <ele>236.62</ele>
        <time>2020-10-25T10:44:12Z</time>
      </trkpt>
      <trkpt lat="43.94469" lon="1.90054">
        <ele>235.66</ele>
        <time>2020-10-25T10:44:29Z</time>
      </trkpt>
      <trkpt lat="43.9447" lon="1.90054">
        <ele>235.66</ele>
        <time>2020-10-25T10:44:30Z</time>
      </trkpt>
      <trkpt lat="43.94474" lon="1.90058">
        <ele>235.18</ele>
        <time>2020-10-25T10:44:34Z</time>
      </trkpt>
      <trkpt lat="43.94491" lon="1.90084">
        <ele>234.7</ele>
        <time>2020-10-25T10:44:54Z</time>
      </trkpt>
      <trkpt lat="43.94491" lon="1.90093">
        <ele>234.22</ele>
        <time>2020-10-25T10:45:08Z</time>
      </trkpt>
      <trkpt lat="43.94489" lon="1.90102">
        <ele>234.22</ele>
        <time>2020-10-25T10:45:21Z</time>
      </trkpt>
      <trkpt lat="43.94489" lon="1.90102">
        <ele>234.22</ele>
        <time>2020-10-25T10:45:22Z</time>
      </trkpt>
      <trkpt lat="43.9449" lon="1.90074">
        <ele>234.22</ele>
        <time>2020-10-25T10:45:41Z</time>
      </trkpt>
      <trkpt lat="43.94478" lon="1.90062">
        <ele>235.18</ele>
        <time>2020-10-25T10:45:54Z</time>
      </trkpt>
      <trkpt lat="43.94474" lon="1.90058">
        <ele>235.66</ele>
        <time>2020-10-25T10:45:58Z</time>
      </trkpt>
      <trkpt lat="43.94468" lon="1.90053">
        <ele>235.66</ele>
        <time>2020-10-25T10:46:04Z</time>
      </trkpt>
      <trkpt lat="43.94455" lon="1.90024">
        <ele>237.1</ele>
        <time>2020-10-25T10:46:23Z</time>
      </trkpt>
      <trkpt lat="43.94442" lon="1.89996">
        <ele>237.58</ele>
        <time>2020-10-25T10:46:42Z</time>
      </trkpt>
      <trkpt lat="43.94436" lon="1.8999">
        <ele>238.06</ele>
        <time>2020-10-25T10:46:56Z</time>
      </trkpt>
      <trkpt lat="43.94437" lon="1.8999">
        <ele>237.58</ele>
        <time>2020-10-25T10:47:06Z</time>
      </trkpt>
      <trkpt lat="43.94445" lon="1.89997">
        <ele>237.58</ele>
        <time>2020-10-25T10:47:17Z</time>
      </trkpt>
      <trkpt lat="43.94451" lon="1.90009">
        <ele>237.58</ele>
        <time>2020-10-25T10:47:26Z</time>
      </trkpt>
      <trkpt lat="43.94461" lon="1.90044">
        <ele>236.14</ele>
        <time>2020-10-25T10:47:47Z</time>
      </trkpt>
      <trkpt lat="43.94473" lon="1.90059">
        <ele>235.66</ele>
        <time>2020-10-25T10:48:01Z</time>
      </trkpt>
      <trkpt lat="43.9449" lon="1.90082">
        <ele>234.7</ele>
        <time>2020-10-25T10:48:21Z</time>
      </trkpt>
      <trkpt lat="43.94489" lon="1.90111">
        <ele>233.74</ele>
        <time>2020-10-25T10:48:38Z</time>
      </trkpt>
      <trkpt lat="43.94488" lon="1.90143">
        <ele>233.26</ele>
        <time>2020-10-25T10:48:56Z</time>
      </trkpt>
      <trkpt lat="43.94484" lon="1.90173">
        <ele>233.26</ele>
        <time>2020-10-25T10:49:13Z</time>
      </trkpt>
      <trkpt lat="43.94476" lon="1.90198">
        <ele>233.26</ele>
        <time>2020-10-25T10:49:28Z</time>
      </trkpt>
      <trkpt lat="43.94467" lon="1.90219">
        <ele>233.26</ele>
        <time>2020-10-25T10:49:43Z</time>
      </trkpt>
      <trkpt lat="43.94462" lon="1.90233">
        <ele>232.78</ele>
        <time>2020-10-25T10:49:52Z</time>
      </trkpt>
      <trkpt lat="43.94457" lon="1.90253">
        <ele>232.3</ele>
        <time>2020-10-25T10:50:05Z</time>
      </trkpt>
      <trkpt lat="43.94447" lon="1.90255">
        <ele>232.78</ele>
        <time>2020-10-25T10:50:17Z</time>
      </trkpt>
      <trkpt lat="43.94437" lon="1.90251">
        <ele>232.78</ele>
        <time>2020-10-25T10:50:27Z</time>
      </trkpt>
      <trkpt lat="43.94432" lon="1.90248">
        <ele>232.78</ele>
        <time>2020-10-25T10:50:31Z</time>
      </trkpt>
      <trkpt lat="43.94413" lon="1.90239">
        <ele>232.3</ele>
        <time>2020-10-25T10:50:48Z</time>
      </trkpt>
      <trkpt lat="43.94396" lon="1.90227">
        <ele>230.85</ele>
        <time>2020-10-25T10:51:04Z</time>
      </trkpt>
      <trkpt lat="43.94381" lon="1.90213">
        <ele>230.37</ele>
        <time>2020-10-25T10:51:19Z</time>
      </trkpt>
      <trkpt lat="43.94367" lon="1.90201">
        <ele>229.89</ele>
        <time>2020-10-25T10:51:35Z</time>
      </trkpt>
      <trkpt lat="43.94362" lon="1.90196">
        <ele>229.89</ele>
        <time>2020-10-25T10:51:51Z</time>
      </trkpt>
      <trkpt lat="43.94361" lon="1.90194">
        <ele>229.89</ele>
        <time>2020-10-25T10:52:11Z</time>
      </trkpt>
      <trkpt lat="43.94362" lon="1.90192">
        <ele>229.89</ele>
        <time>2020-10-25T10:52:27Z</time>
      </trkpt>
      <trkpt lat="43.9436" lon="1.90192">
        <ele>229.89</ele>
        <time>2020-10-25T10:52:42Z</time>
      </trkpt>
      <trkpt lat="43.94359" lon="1.9019">
        <ele>229.41</ele>
        <time>2020-10-25T10:52:56Z</time>
      </trkpt>
      <trkpt lat="43.9436" lon="1.90191">
        <ele>229.41</ele>
        <time>2020-10-25T10:53:13Z</time>
      </trkpt>
      <trkpt lat="43.94357" lon="1.90191">
        <ele>228.93</ele>
        <time>2020-10-25T10:53:31Z</time>
      </trkpt>
      <trkpt lat="43.94354" lon="1.9019">
        <ele>228.93</ele>
        <time>2020-10-25T10:53:35Z</time>
      </trkpt>
      <trkpt lat="43.94345" lon="1.90188">
        <ele>230.37</ele>
        <time>2020-10-25T10:53:44Z</time>
      </trkpt>
      <trkpt lat="43.94332" lon="1.90179">
        <ele>232.3</ele>
        <time>2020-10-25T10:53:58Z</time>
      </trkpt>
      <trkpt lat="43.94327" lon="1.90176">
        <ele>232.3</ele>
        <time>2020-10-25T10:54:03Z</time>
      </trkpt>
      <trkpt lat="43.94307" lon="1.90172">
        <ele>233.26</ele>
        <time>2020-10-25T10:54:20Z</time>
      </trkpt>
      <trkpt lat="43.9429" lon="1.90168">
        <ele>234.22</ele>
        <time>2020-10-25T10:54:35Z</time>
      </trkpt>
      <trkpt lat="43.94277" lon="1.90164">
        <ele>236.14</ele>
        <time>2020-10-25T10:54:47Z</time>
      </trkpt>
      <trkpt lat="43.94265" lon="1.90152">
        <ele>238.54</ele>
        <time>2020-10-25T10:55:02Z</time>
      </trkpt>
      <trkpt lat="43.94262" lon="1.90146">
        <ele>239.51</ele>
        <time>2020-10-25T10:55:15Z</time>
      </trkpt>
      <trkpt lat="43.94264" lon="1.90138">
        <ele>239.51</ele>
        <time>2020-10-25T10:55:28Z</time>
      </trkpt>
      <trkpt lat="43.94267" lon="1.90135">
        <ele>239.99</ele>
        <time>2020-10-25T10:55:40Z</time>
      </trkpt>
      <trkpt lat="43.94268" lon="1.90135">
        <ele>239.99</ele>
        <time>2020-10-25T10:55:52Z</time>
      </trkpt>
      <trkpt lat="43.94271" lon="1.9014">
        <ele>239.99</ele>
        <time>2020-10-25T10:56:05Z</time>
      </trkpt>
      <trkpt lat="43.9427" lon="1.90136">
        <ele>240.47</ele>
        <time>2020-10-25T10:56:23Z</time>
      </trkpt>
      <trkpt lat="43.94267" lon="1.9013">
        <ele>240.95</ele>
        <time>2020-10-25T10:56:36Z</time>
      </trkpt>
      <trkpt lat="43.94264" lon="1.90135">
        <ele>240.95</ele>
        <time>2020-10-25T10:56:42Z</time>
      </trkpt>
      <trkpt lat="43.94246" lon="1.90146">
        <ele>239.51</ele>
        <time>2020-10-25T10:56:58Z</time>
      </trkpt>
      <trkpt lat="43.94237" lon="1.90154">
        <ele>239.02</ele>
        <time>2020-10-25T10:57:06Z</time>
      </trkpt>
      <trkpt lat="43.94232" lon="1.90163">
        <ele>238.54</ele>
        <time>2020-10-25T10:57:12Z</time>
      </trkpt>
      <trkpt lat="43.94227" lon="1.90169">
        <ele>238.06</ele>
        <time>2020-10-25T10:57:17Z</time>
      </trkpt>
      <trkpt lat="43.94219" lon="1.90179">
        <ele>237.1</ele>
        <time>2020-10-25T10:57:29Z</time>
      </trkpt>
      <trkpt lat="43.94214" lon="1.90183">
        <ele>237.1</ele>
        <time>2020-10-25T10:57:34Z</time>
      </trkpt>
      <trkpt lat="43.9421" lon="1.90197">
        <ele>236.62</ele>
        <time>2020-10-25T10:57:46Z</time>
      </trkpt>
      <trkpt lat="43.94216" lon="1.90217">
        <ele>236.14</ele>
        <time>2020-10-25T10:58:02Z</time>
      </trkpt>
      <trkpt lat="43.94223" lon="1.90221">
        <ele>236.14</ele>
        <time>2020-10-25T10:58:15Z</time>
      </trkpt>
      <trkpt lat="43.94224" lon="1.90207">
        <ele>236.14</ele>
        <time>2020-10-25T10:58:27Z</time>
      </trkpt>
      <trkpt lat="43.94228" lon="1.90197">
        <ele>236.14</ele>
        <time>2020-10-25T10:58:41Z</time>
      </trkpt>
      <trkpt lat="43.9423" lon="1.90197">
        <ele>236.14</ele>
        <time>2020-10-25T10:59:05Z</time>
      </trkpt>
      <trkpt lat="43.94229" lon="1.90195">
        <ele>236.14</ele>
        <time>2020-10-25T10:59:19Z</time>
      </trkpt>
      <trkpt lat="43.94229" lon="1.90197">
        <ele>236.14</ele>
        <time>2020-10-25T10:59:33Z</time>
      </trkpt>
      <trkpt lat="43.94228" lon="1.90197">
        <ele>235.66</ele>
        <time>2020-10-25T10:59:52Z</time>
      </trkpt>
      <trkpt lat="43.94228" lon="1.90198">
        <ele>235.66</ele>
        <time>2020-10-25T11:00:07Z</time>
      </trkpt>
      <trkpt lat="43.94226" lon="1.90199">
        <ele>235.66</ele>
        <time>2020-10-25T11:00:21Z</time>
      </trkpt>
      <trkpt lat="43.94223" lon="1.902">
        <ele>235.66</ele>
        <time>2020-10-25T11:00:33Z</time>
      </trkpt>
      <trkpt lat="43.94225" lon="1.902">
        <ele>235.18</ele>
        <time>2020-10-25T11:00:44Z</time>
      </trkpt>
      <trkpt lat="43.94226" lon="1.90199">
        <ele>235.18</ele>
        <time>2020-10-25T11:01:01Z</time>
      </trkpt>
      <trkpt lat="43.94224" lon="1.90202">
        <ele>235.66</ele>
        <time>2020-10-25T11:01:12Z</time>
      </trkpt>
      <trkpt lat="43.94226" lon="1.90199">
        <ele>235.66</ele>
        <time>2020-10-25T11:01:25Z</time>
      </trkpt>
      <trkpt lat="43.94226" lon="1.902">
        <ele>235.66</ele>
        <time>2020-10-25T11:01:55Z</time>
      </trkpt>
      <trkpt lat="43.94227" lon="1.90197">
        <ele>235.66</ele>
        <time>2020-10-25T11:02:19Z</time>
      </trkpt>
      <trkpt lat="43.94227" lon="1.90198">
        <ele>235.66</ele>
        <time>2020-10-25T11:02:42Z</time>
      </trkpt>
      <trkpt lat="43.94226" lon="1.902">
        <ele>235.66</ele>
        <time>2020-10-25T11:03:09Z</time>
      </trkpt>
      <trkpt lat="43.94226" lon="1.902">
        <ele>235.66</ele>
        <time>2020-10-25T11:03:25Z</time>
      </trkpt>
      <trkpt lat="43.94221" lon="1.90203">
        <ele>235.66</ele>
        <time>2020-10-25T11:03:37Z</time>
      </trkpt>
      <trkpt lat="43.94219" lon="1.90204">
        <ele>235.66</ele>
        <time>2020-10-25T11:03:39Z</time>
      </trkpt>
      <trkpt lat="43.94193" lon="1.90215">
        <ele>235.66</ele>
        <time>2020-10-25T11:03:59Z</time>
      </trkpt>
      <trkpt lat="43.94176" lon="1.90236">
        <ele>235.66</ele>
        <time>2020-10-25T11:04:16Z</time>
      </trkpt>
      <trkpt lat="43.94164" lon="1.9026">
        <ele>235.18</ele>
        <time>2020-10-25T11:04:34Z</time>
      </trkpt>
      <trkpt lat="43.94149" lon="1.90285">
        <ele>235.18</ele>
        <time>2020-10-25T11:04:52Z</time>
      </trkpt>
      <trkpt lat="43.94147" lon="1.90287">
        <ele>235.18</ele>
        <time>2020-10-25T11:04:54Z</time>
      </trkpt>
      <trkpt lat="43.94143" lon="1.90291">
        <ele>235.18</ele>
        <time>2020-10-25T11:04:58Z</time>
      </trkpt>
      <trkpt lat="43.94133" lon="1.90308">
        <ele>235.66</ele>
        <time>2020-10-25T11:05:16Z</time>
      </trkpt>
      <trkpt lat="43.94134" lon="1.9031">
        <ele>235.18</ele>
        <time>2020-10-25T11:05:31Z</time>
      </trkpt>
      <trkpt lat="43.94134" lon="1.9031">
        <ele>235.18</ele>
        <time>2020-10-25T11:05:45Z</time>
      </trkpt>
      <trkpt lat="43.94136" lon="1.9031">
        <ele>235.18</ele>
        <time>2020-10-25T11:05:58Z</time>
      </trkpt>
      <trkpt lat="43.94137" lon="1.90309">
        <ele>235.18</ele>
        <time>2020-10-25T11:06:06Z</time>
      </trkpt>
      <trkpt lat="43.94142" lon="1.90298">
        <ele>236.14</ele>
        <time>2020-10-25T11:06:20Z</time>
      </trkpt>
      <trkpt lat="43.94146" lon="1.90291">
        <ele>236.14</ele>
        <time>2020-10-25T11:06:26Z</time>
      </trkpt>
      <trkpt lat="43.94154" lon="1.90276">
        <ele>236.14</ele>
        <time>2020-10-25T11:06:36Z</time>
      </trkpt>
      <trkpt lat="43.94165" lon="1.90263">
        <ele>236.14</ele>
        <time>2020-10-25T11:06:50Z</time>
      </trkpt>
      <trkpt lat="43.9417" lon="1.90257">
        <ele>236.62</ele>
        <time>2020-10-25T11:07:02Z</time>
      </trkpt>
      <trkpt lat="43.9417" lon="1.90257">
        <ele>236.62</ele>
        <time>2020-10-25T11:07:20Z</time>
      </trkpt>
      <trkpt lat="43.94166" lon="1.90254">
        <ele>236.62</ele>
        <time>2020-10-25T11:07:32Z</time>
      </trkpt>
      <trkpt lat="43.94167" lon="1.90255">
        <ele>236.62</ele>
        <time>2020-10-25T11:07:56Z</time>
      </trkpt>
      <trkpt lat="43.94171" lon="1.90255">
        <ele>236.62</ele>
        <time>2020-10-25T11:08:21Z</time>
      </trkpt>
      <trkpt lat="43.94168" lon="1.90254">
        <ele>236.62</ele>
        <time>2020-10-25T11:08:47Z</time>
      </trkpt>
      <trkpt lat="43.94164" lon="1.90257">
        <ele>236.62</ele>
        <time>2020-10-25T11:09:03Z</time>
      </trkpt>
      <trkpt lat="43.94158" lon="1.90266">
        <ele>236.62</ele>
        <time>2020-10-25T11:09:15Z</time>
      </trkpt>
      <trkpt lat="43.94152" lon="1.90273">
        <ele>236.62</ele>
        <time>2020-10-25T11:09:28Z</time>
      </trkpt>
      <trkpt lat="43.9414" lon="1.90289">
        <ele>236.62</ele>
        <time>2020-10-25T11:09:42Z</time>
      </trkpt>
      <trkpt lat="43.94134" lon="1.903">
        <ele>236.62</ele>
        <time>2020-10-25T11:09:56Z</time>
      </trkpt>
      <trkpt lat="43.94133" lon="1.90306">
        <ele>236.62</ele>
        <time>2020-10-25T11:10:15Z</time>
      </trkpt>
      <trkpt lat="43.94128" lon="1.90313">
        <ele>235.18</ele>
        <time>2020-10-25T11:10:21Z</time>
      </trkpt>
      <trkpt lat="43.94114" lon="1.90331">
        <ele>233.26</ele>
        <time>2020-10-25T11:10:37Z</time>
      </trkpt>
      <trkpt lat="43.94107" lon="1.90354">
        <ele>230.85</ele>
        <time>2020-10-25T11:10:50Z</time>
      </trkpt>
      <trkpt lat="43.94112" lon="1.90375">
        <ele>229.89</ele>
        <time>2020-10-25T11:11:01Z</time>
      </trkpt>
      <trkpt lat="43.94098" lon="1.90391">
        <ele>227.49</ele>
        <time>2020-10-25T11:11:17Z</time>
      </trkpt>
      <trkpt lat="43.94087" lon="1.904">
        <ele>226.53</ele>
        <time>2020-10-25T11:11:29Z</time>
      </trkpt>
      <trkpt lat="43.94072" lon="1.90416">
        <ele>224.12</ele>
        <time>2020-10-25T11:11:46Z</time>
      </trkpt>
      <trkpt lat="43.94063" lon="1.90432">
        <ele>222.68</ele>
        <time>2020-10-25T11:12:00Z</time>
      </trkpt>
      <trkpt lat="43.94056" lon="1.90445">
        <ele>221.24</ele>
        <time>2020-10-25T11:12:09Z</time>
      </trkpt>
      <trkpt lat="43.94054" lon="1.90453">
        <ele>220.28</ele>
        <time>2020-10-25T11:12:14Z</time>
      </trkpt>
      <trkpt lat="43.94043" lon="1.90477">
        <ele>217.88</ele>
        <time>2020-10-25T11:12:30Z</time>
      </trkpt>
      <trkpt lat="43.94031" lon="1.90494">
        <ele>215.47</ele>
        <time>2020-10-25T11:12:45Z</time>
      </trkpt>
      <trkpt lat="43.94019" lon="1.90514">
        <ele>212.11</ele>
        <time>2020-10-25T11:13:01Z</time>
      </trkpt>
      <trkpt lat="43.94011" lon="1.90529">
        <ele>210.67</ele>
        <time>2020-10-25T11:13:14Z</time>
      </trkpt>
      <trkpt lat="43.9401" lon="1.90533">
        <ele>210.19</ele>
        <time>2020-10-25T11:13:17Z</time>
      </trkpt>
      <trkpt lat="43.94" lon="1.90544">
        <ele>207.78</ele>
        <time>2020-10-25T11:13:30Z</time>
      </trkpt>
      <trkpt lat="43.94002" lon="1.90554">
        <ele>207.3</ele>
        <time>2020-10-25T11:13:41Z</time>
      </trkpt>
      <trkpt lat="43.94006" lon="1.90564">
        <ele>205.86</ele>
        <time>2020-10-25T11:13:55Z</time>
      </trkpt>
      <trkpt lat="43.94004" lon="1.90566">
        <ele>205.38</ele>
        <time>2020-10-25T11:14:02Z</time>
      </trkpt>
      <trkpt lat="43.93994" lon="1.90563">
        <ele>204.42</ele>
        <time>2020-10-25T11:14:12Z</time>
      </trkpt>
      <trkpt lat="43.93991" lon="1.9057">
        <ele>203.46</ele>
        <time>2020-10-25T11:14:17Z</time>
      </trkpt>
      <trkpt lat="43.9399" lon="1.90573">
        <ele>202.98</ele>
        <time>2020-10-25T11:14:19Z</time>
      </trkpt>
      <trkpt lat="43.93989" lon="1.90576">
        <ele>202.49</ele>
        <time>2020-10-25T11:14:21Z</time>
      </trkpt>
      <trkpt lat="43.9398" lon="1.90591">
        <ele>199.61</ele>
        <time>2020-10-25T11:14:36Z</time>
      </trkpt>
      <trkpt lat="43.9398" lon="1.90594">
        <ele>199.13</ele>
        <time>2020-10-25T11:14:38Z</time>
      </trkpt>
      <trkpt lat="43.93969" lon="1.90608">
        <ele>195.77</ele>
        <time>2020-10-25T11:14:51Z</time>
      </trkpt>
      <trkpt lat="43.93968" lon="1.90609">
        <ele>195.77</ele>
        <time>2020-10-25T11:14:52Z</time>
      </trkpt>
      <trkpt lat="43.93961" lon="1.90617">
        <ele>194.32</ele>
        <time>2020-10-25T11:14:59Z</time>
      </trkpt>
      <trkpt lat="43.93953" lon="1.90634">
        <ele>191.44</ele>
        <time>2020-10-25T11:15:11Z</time>
      </trkpt>
      <trkpt lat="43.93943" lon="1.90648">
        <ele>190</ele>
        <time>2020-10-25T11:15:22Z</time>
      </trkpt>
      <trkpt lat="43.93939" lon="1.90653">
        <ele>189.52</ele>
        <time>2020-10-25T11:15:26Z</time>
      </trkpt>
      <trkpt lat="43.93936" lon="1.90657">
        <ele>189.04</ele>
        <time>2020-10-25T11:15:29Z</time>
      </trkpt>
      <trkpt lat="43.9393" lon="1.90672">
        <ele>188.08</ele>
        <time>2020-10-25T11:15:40Z</time>
      </trkpt>
      <trkpt lat="43.93925" lon="1.90682">
        <ele>187.59</ele>
        <time>2020-10-25T11:15:49Z</time>
      </trkpt>
      <trkpt lat="43.93911" lon="1.90695">
        <ele>186.15</ele>
        <time>2020-10-25T11:16:02Z</time>
      </trkpt>
      <trkpt lat="43.93895" lon="1.90707">
        <ele>184.71</ele>
        <time>2020-10-25T11:16:17Z</time>
      </trkpt>
      <trkpt lat="43.93891" lon="1.90711">
        <ele>184.71</ele>
        <time>2020-10-25T11:16:20Z</time>
      </trkpt>
      <trkpt lat="43.93883" lon="1.90722">
        <ele>184.71</ele>
        <time>2020-10-25T11:16:27Z</time>
      </trkpt>
      <trkpt lat="43.9387" lon="1.9074">
        <ele>185.19</ele>
        <time>2020-10-25T11:16:40Z</time>
      </trkpt>
      <trkpt lat="43.93857" lon="1.90756">
        <ele>185.19</ele>
        <time>2020-10-25T11:16:54Z</time>
      </trkpt>
      <trkpt lat="43.93843" lon="1.90767">
        <ele>187.59</ele>
        <time>2020-10-25T11:17:07Z</time>
      </trkpt>
      <trkpt lat="43.93827" lon="1.9079">
        <ele>189.04</ele>
        <time>2020-10-25T11:17:23Z</time>
      </trkpt>
      <trkpt lat="43.93814" lon="1.90809">
        <ele>190.96</ele>
        <time>2020-10-25T11:17:38Z</time>
      </trkpt>
      <trkpt lat="43.93801" lon="1.90823">
        <ele>193.36</ele>
        <time>2020-10-25T11:17:53Z</time>
      </trkpt>
      <trkpt lat="43.93791" lon="1.90838">
        <ele>194.8</ele>
        <time>2020-10-25T11:18:05Z</time>
      </trkpt>
      <trkpt lat="43.93784" lon="1.90853">
        <ele>197.21</ele>
        <time>2020-10-25T11:18:18Z</time>
      </trkpt>
      <trkpt lat="43.93782" lon="1.90858">
        <ele>197.69</ele>
        <time>2020-10-25T11:18:29Z</time>
      </trkpt>
      <trkpt lat="43.93777" lon="1.90864">
        <ele>199.13</ele>
        <time>2020-10-25T11:18:40Z</time>
      </trkpt>
      <trkpt lat="43.93766" lon="1.90884">
        <ele>200.57</ele>
        <time>2020-10-25T11:18:56Z</time>
      </trkpt>
      <trkpt lat="43.93756" lon="1.90897">
        <ele>202.01</ele>
        <time>2020-10-25T11:19:08Z</time>
      </trkpt>
      <trkpt lat="43.93743" lon="1.90924">
        <ele>202.01</ele>
        <time>2020-10-25T11:19:25Z</time>
      </trkpt>
      <trkpt lat="43.93729" lon="1.90949">
        <ele>200.57</ele>
        <time>2020-10-25T11:19:42Z</time>
      </trkpt>
      <trkpt lat="43.93719" lon="1.90971">
        <ele>199.13</ele>
        <time>2020-10-25T11:19:55Z</time>
      </trkpt>
      <trkpt lat="43.93707" lon="1.90997">
        <ele>198.17</ele>
        <time>2020-10-25T11:20:11Z</time>
      </trkpt>
      <trkpt lat="43.93691" lon="1.91011">
        <ele>196.73</ele>
        <time>2020-10-25T11:20:26Z</time>
      </trkpt>
      <trkpt lat="43.93678" lon="1.91026">
        <ele>195.28</ele>
        <time>2020-10-25T11:20:40Z</time>
      </trkpt>
      <trkpt lat="43.93662" lon="1.91043">
        <ele>193.84</ele>
        <time>2020-10-25T11:20:58Z</time>
      </trkpt>
      <trkpt lat="43.93649" lon="1.91058">
        <ele>192.4</ele>
        <time>2020-10-25T11:21:13Z</time>
      </trkpt>
      <trkpt lat="43.93637" lon="1.91069">
        <ele>191.92</ele>
        <time>2020-10-25T11:21:29Z</time>
      </trkpt>
      <trkpt lat="43.93636" lon="1.91069">
        <ele>191.92</ele>
        <time>2020-10-25T11:21:35Z</time>
      </trkpt>
      <trkpt lat="43.93636" lon="1.91065">
        <ele>191.92</ele>
        <time>2020-10-25T11:21:39Z</time>
      </trkpt>
      <trkpt lat="43.93635" lon="1.91061">
        <ele>191.92</ele>
        <time>2020-10-25T11:21:42Z</time>
      </trkpt>
      <trkpt lat="43.93619" lon="1.91047">
        <ele>191.92</ele>
        <time>2020-10-25T11:22:00Z</time>
      </trkpt>
      <trkpt lat="43.93611" lon="1.91042">
        <ele>191.92</ele>
        <time>2020-10-25T11:22:08Z</time>
      </trkpt>
      <trkpt lat="43.93602" lon="1.91039">
        <ele>191.92</ele>
        <time>2020-10-25T11:22:15Z</time>
      </trkpt>
      <trkpt lat="43.93598" lon="1.91041">
        <ele>191.92</ele>
        <time>2020-10-25T11:22:19Z</time>
      </trkpt>
      <trkpt lat="43.93593" lon="1.91061">
        <ele>191.44</ele>
        <time>2020-10-25T11:22:34Z</time>
      </trkpt>
      <trkpt lat="43.93592" lon="1.91073">
        <ele>190.96</ele>
        <time>2020-10-25T11:22:41Z</time>
      </trkpt>
      <trkpt lat="43.93588" lon="1.91083">
        <ele>190.48</ele>
        <time>2020-10-25T11:22:47Z</time>
      </trkpt>
      <trkpt lat="43.93595" lon="1.91093">
        <ele>190.48</ele>
        <time>2020-10-25T11:22:59Z</time>
      </trkpt>
      <trkpt lat="43.93594" lon="1.91093">
        <ele>190.48</ele>
        <time>2020-10-25T11:23:00Z</time>
      </trkpt>
      <trkpt lat="43.93582" lon="1.91095">
        <ele>190</ele>
        <time>2020-10-25T11:23:15Z</time>
      </trkpt>
      <trkpt lat="43.93582" lon="1.91102">
        <ele>189.52</ele>
        <time>2020-10-25T11:23:23Z</time>
      </trkpt>
      <trkpt lat="43.9358" lon="1.91112">
        <ele>188.56</ele>
        <time>2020-10-25T11:23:29Z</time>
      </trkpt>
      <trkpt lat="43.93575" lon="1.91129">
        <ele>188.08</ele>
        <time>2020-10-25T11:23:39Z</time>
      </trkpt>
      <trkpt lat="43.93573" lon="1.9114">
        <ele>187.59</ele>
        <time>2020-10-25T11:23:45Z</time>
      </trkpt>
      <trkpt lat="43.93566" lon="1.91157">
        <ele>186.15</ele>
        <time>2020-10-25T11:24:01Z</time>
      </trkpt>
      <trkpt lat="43.93557" lon="1.91156">
        <ele>186.15</ele>
        <time>2020-10-25T11:24:15Z</time>
      </trkpt>
      <trkpt lat="43.93554" lon="1.91154">
        <ele>186.15</ele>
        <time>2020-10-25T11:24:29Z</time>
      </trkpt>
      <trkpt lat="43.93554" lon="1.9115">
        <ele>186.15</ele>
        <time>2020-10-25T11:24:31Z</time>
      </trkpt>
      <trkpt lat="43.93554" lon="1.9114">
        <ele>186.15</ele>
        <time>2020-10-25T11:24:46Z</time>
      </trkpt>
      <trkpt lat="43.93552" lon="1.9114">
        <ele>186.15</ele>
        <time>2020-10-25T11:24:56Z</time>
      </trkpt>
      <trkpt lat="43.93553" lon="1.91142">
        <ele>186.15</ele>
        <time>2020-10-25T11:25:09Z</time>
      </trkpt>
      <trkpt lat="43.93553" lon="1.91141">
        <ele>186.15</ele>
        <time>2020-10-25T11:25:12Z</time>
      </trkpt>
      <trkpt lat="43.93557" lon="1.91151">
        <ele>186.15</ele>
        <time>2020-10-25T11:25:23Z</time>
      </trkpt>
      <trkpt lat="43.93561" lon="1.91156">
        <ele>187.11</ele>
        <time>2020-10-25T11:25:32Z</time>
      </trkpt>
      <trkpt lat="43.9356" lon="1.91158">
        <ele>187.11</ele>
        <time>2020-10-25T11:25:44Z</time>
      </trkpt>
      <trkpt lat="43.93559" lon="1.9116">
        <ele>187.11</ele>
        <time>2020-10-25T11:25:57Z</time>
      </trkpt>
      <trkpt lat="43.9356" lon="1.91168">
        <ele>187.11</ele>
        <time>2020-10-25T11:26:42Z</time>
      </trkpt>
      <trkpt lat="43.93559" lon="1.91169">
        <ele>187.11</ele>
        <time>2020-10-25T11:27:16Z</time>
      </trkpt>
      <trkpt lat="43.93558" lon="1.91164">
        <ele>187.59</ele>
        <time>2020-10-25T11:27:45Z</time>
      </trkpt>
      <trkpt lat="43.93559" lon="1.91167">
        <ele>187.59</ele>
        <time>2020-10-25T11:28:16Z</time>
      </trkpt>
      <trkpt lat="43.93561" lon="1.91161">
        <ele>188.08</ele>
        <time>2020-10-25T11:28:40Z</time>
      </trkpt>
      <trkpt lat="43.93559" lon="1.91164">
        <ele>188.08</ele>
        <time>2020-10-25T11:29:15Z</time>
      </trkpt>
      <trkpt lat="43.9356" lon="1.91164">
        <ele>188.08</ele>
        <time>2020-10-25T11:29:53Z</time>
      </trkpt>
      <trkpt lat="43.9356" lon="1.91163">
        <ele>188.08</ele>
        <time>2020-10-25T11:30:30Z</time>
      </trkpt>
      <trkpt lat="43.93561" lon="1.91164">
        <ele>188.08</ele>
        <time>2020-10-25T11:30:59Z</time>
      </trkpt>
      <trkpt lat="43.93557" lon="1.91165">
        <ele>188.08</ele>
        <time>2020-10-25T11:31:29Z</time>
      </trkpt>
      <trkpt lat="43.93557" lon="1.91165">
        <ele>188.08</ele>
        <time>2020-10-25T11:32:02Z</time>
      </trkpt>
      <trkpt lat="43.93558" lon="1.91163">
        <ele>188.08</ele>
        <time>2020-10-25T11:32:39Z</time>
      </trkpt>
      <trkpt lat="43.93554" lon="1.91162">
        <ele>188.08</ele>
        <time>2020-10-25T11:33:16Z</time>
      </trkpt>
      <trkpt lat="43.93562" lon="1.9116">
        <ele>188.56</ele>
        <time>2020-10-25T11:33:51Z</time>
      </trkpt>
      <trkpt lat="43.93561" lon="1.91159">
        <ele>188.56</ele>
        <time>2020-10-25T11:34:41Z</time>
      </trkpt>
      <trkpt lat="43.93563" lon="1.91155">
        <ele>189.04</ele>
        <time>2020-10-25T11:35:21Z</time>
      </trkpt>
      <trkpt lat="43.93559" lon="1.91156">
        <ele>189.04</ele>
        <time>2020-10-25T11:36:07Z</time>
      </trkpt>
      <trkpt lat="43.93558" lon="1.91162">
        <ele>189.52</ele>
        <time>2020-10-25T11:36:50Z</time>
      </trkpt>
      <trkpt lat="43.93559" lon="1.91164">
        <ele>189.52</ele>
        <time>2020-10-25T11:37:37Z</time>
      </trkpt>
      <trkpt lat="43.93559" lon="1.91163">
        <ele>189.52</ele>
        <time>2020-10-25T11:38:07Z</time>
      </trkpt>
      <trkpt lat="43.93558" lon="1.91164">
        <ele>189.52</ele>
        <time>2020-10-25T11:38:49Z</time>
      </trkpt>
      <trkpt lat="43.93554" lon="1.91166">
        <ele>190</ele>
        <time>2020-10-25T11:39:27Z</time>
      </trkpt>
      <trkpt lat="43.93557" lon="1.91165">
        <ele>190.48</ele>
        <time>2020-10-25T11:39:59Z</time>
      </trkpt>
      <trkpt lat="43.93562" lon="1.91165">
        <ele>190.48</ele>
        <time>2020-10-25T11:40:38Z</time>
      </trkpt>
      <trkpt lat="43.9356" lon="1.91165">
        <ele>190.48</ele>
        <time>2020-10-25T11:41:13Z</time>
      </trkpt>
      <trkpt lat="43.93562" lon="1.91167">
        <ele>190.48</ele>
        <time>2020-10-25T11:41:49Z</time>
      </trkpt>
      <trkpt lat="43.93561" lon="1.91166">
        <ele>190.48</ele>
        <time>2020-10-25T11:42:23Z</time>
      </trkpt>
      <trkpt lat="43.93556" lon="1.91166">
        <ele>190.48</ele>
        <time>2020-10-25T11:42:58Z</time>
      </trkpt>
      <trkpt lat="43.93554" lon="1.91167">
        <ele>190.48</ele>
        <time>2020-10-25T11:43:35Z</time>
      </trkpt>
      <trkpt lat="43.93553" lon="1.91166">
        <ele>190.48</ele>
        <time>2020-10-25T11:44:20Z</time>
      </trkpt>
      <trkpt lat="43.93553" lon="1.91168">
        <ele>190.48</ele>
        <time>2020-10-25T11:45:01Z</time>
      </trkpt>
      <trkpt lat="43.93557" lon="1.91167">
        <ele>190.96</ele>
        <time>2020-10-25T11:45:44Z</time>
      </trkpt>
      <trkpt lat="43.93552" lon="1.91167">
        <ele>190.96</ele>
        <time>2020-10-25T11:46:24Z</time>
      </trkpt>
      <trkpt lat="43.93555" lon="1.91167">
        <ele>190.96</ele>
        <time>2020-10-25T11:47:06Z</time>
      </trkpt>
      <trkpt lat="43.93558" lon="1.91166">
        <ele>191.44</ele>
        <time>2020-10-25T11:47:44Z</time>
      </trkpt>
      <trkpt lat="43.93561" lon="1.91164">
        <ele>191.92</ele>
        <time>2020-10-25T11:48:19Z</time>
      </trkpt>
      <trkpt lat="43.93563" lon="1.91163">
        <ele>191.44</ele>
        <time>2020-10-25T11:49:02Z</time>
      </trkpt>
      <trkpt lat="43.93562" lon="1.91164">
        <ele>191.44</ele>
        <time>2020-10-25T11:49:39Z</time>
      </trkpt>
      <trkpt lat="43.93559" lon="1.91163">
        <ele>191.44</ele>
        <time>2020-10-25T11:50:20Z</time>
      </trkpt>
      <trkpt lat="43.93559" lon="1.91163">
        <ele>191.92</ele>
        <time>2020-10-25T11:50:53Z</time>
      </trkpt>
      <trkpt lat="43.93557" lon="1.9116">
        <ele>192.4</ele>
        <time>2020-10-25T11:51:24Z</time>
      </trkpt>
      <trkpt lat="43.93558" lon="1.91159">
        <ele>191.44</ele>
        <time>2020-10-25T11:51:37Z</time>
      </trkpt>
      <trkpt lat="43.93558" lon="1.91161">
        <ele>192.4</ele>
        <time>2020-10-25T11:52:04Z</time>
      </trkpt>
      <trkpt lat="43.93559" lon="1.91164">
        <ele>192.4</ele>
        <time>2020-10-25T11:52:21Z</time>
      </trkpt>
      <trkpt lat="43.9356" lon="1.91162">
        <ele>192.4</ele>
        <time>2020-10-25T11:52:41Z</time>
      </trkpt>
      <trkpt lat="43.93558" lon="1.91161">
        <ele>192.4</ele>
        <time>2020-10-25T11:53:01Z</time>
      </trkpt>
      <trkpt lat="43.93563" lon="1.91157">
        <ele>192.4</ele>
        <time>2020-10-25T11:53:23Z</time>
      </trkpt>
      <trkpt lat="43.93569" lon="1.91156">
        <ele>192.88</ele>
        <time>2020-10-25T11:53:38Z</time>
      </trkpt>
      <trkpt lat="43.93574" lon="1.91157">
        <ele>192.4</ele>
        <time>2020-10-25T11:53:58Z</time>
      </trkpt>
      <trkpt lat="43.93576" lon="1.91163">
        <ele>192.4</ele>
        <time>2020-10-25T11:54:13Z</time>
      </trkpt>
      <trkpt lat="43.93576" lon="1.91161">
        <ele>192.88</ele>
        <time>2020-10-25T11:54:24Z</time>
      </trkpt>
      <trkpt lat="43.93576" lon="1.91159">
        <ele>192.88</ele>
        <time>2020-10-25T11:54:39Z</time>
      </trkpt>
      <trkpt lat="43.93578" lon="1.91145">
        <ele>194.32</ele>
        <time>2020-10-25T11:54:52Z</time>
      </trkpt>
      <trkpt lat="43.93569" lon="1.91118">
        <ele>195.77</ele>
        <time>2020-10-25T11:55:09Z</time>
      </trkpt>
      <trkpt lat="43.93575" lon="1.91111">
        <ele>195.77</ele>
        <time>2020-10-25T11:55:20Z</time>
      </trkpt>
      <trkpt lat="43.93576" lon="1.9111">
        <ele>195.77</ele>
        <time>2020-10-25T11:55:21Z</time>
      </trkpt>
      <trkpt lat="43.93585" lon="1.91096">
        <ele>197.21</ele>
        <time>2020-10-25T11:55:32Z</time>
      </trkpt>
      <trkpt lat="43.93592" lon="1.91091">
        <ele>198.17</ele>
        <time>2020-10-25T11:55:38Z</time>
      </trkpt>
      <trkpt lat="43.93594" lon="1.91089">
        <ele>198.65</ele>
        <time>2020-10-25T11:55:40Z</time>
      </trkpt>
      <trkpt lat="43.93598" lon="1.91077">
        <ele>199.13</ele>
        <time>2020-10-25T11:55:48Z</time>
      </trkpt>
      <trkpt lat="43.93607" lon="1.91046">
        <ele>200.09</ele>
        <time>2020-10-25T11:56:08Z</time>
      </trkpt>
      <trkpt lat="43.93625" lon="1.91054">
        <ele>200.57</ele>
        <time>2020-10-25T11:56:26Z</time>
      </trkpt>
      <trkpt lat="43.93633" lon="1.91072">
        <ele>199.13</ele>
        <time>2020-10-25T11:56:43Z</time>
      </trkpt>
      <trkpt lat="43.93632" lon="1.91074">
        <ele>199.13</ele>
        <time>2020-10-25T11:56:45Z</time>
      </trkpt>
      <trkpt lat="43.93622" lon="1.91098">
        <ele>197.21</ele>
        <time>2020-10-25T11:57:01Z</time>
      </trkpt>
      <trkpt lat="43.93619" lon="1.91132">
        <ele>194.32</ele>
        <time>2020-10-25T11:57:21Z</time>
      </trkpt>
      <trkpt lat="43.9362" lon="1.91163">
        <ele>192.4</ele>
        <time>2020-10-25T11:57:40Z</time>
      </trkpt>
      <trkpt lat="43.93623" lon="1.91191">
        <ele>190.48</ele>
        <time>2020-10-25T11:57:57Z</time>
      </trkpt>
      <trkpt lat="43.93625" lon="1.91211">
        <ele>189.52</ele>
        <time>2020-10-25T11:58:08Z</time>
      </trkpt>
      <trkpt lat="43.93631" lon="1.91241">
        <ele>187.11</ele>
        <time>2020-10-25T11:58:26Z</time>
      </trkpt>
      <trkpt lat="43.93636" lon="1.91278">
        <ele>184.23</ele>
        <time>2020-10-25T11:58:47Z</time>
      </trkpt>
      <trkpt lat="43.9364" lon="1.91311">
        <ele>180.87</ele>
        <time>2020-10-25T11:59:07Z</time>
      </trkpt>
      <trkpt lat="43.93646" lon="1.91335">
        <ele>178.94</ele>
        <time>2020-10-25T11:59:26Z</time>
      </trkpt>
      <trkpt lat="43.93656" lon="1.91362">
        <ele>176.54</ele>
        <time>2020-10-25T11:59:43Z</time>
      </trkpt>
      <trkpt lat="43.93668" lon="1.91394">
        <ele>174.62</ele>
        <time>2020-10-25T12:00:01Z</time>
      </trkpt>
      <trkpt lat="43.93676" lon="1.91408">
        <ele>174.62</ele>
        <time>2020-10-25T12:00:19Z</time>
      </trkpt>
      <trkpt lat="43.93679" lon="1.91414">
        <ele>174.62</ele>
        <time>2020-10-25T12:00:27Z</time>
      </trkpt>
      <trkpt lat="43.93689" lon="1.91431">
        <ele>174.62</ele>
        <time>2020-10-25T12:00:41Z</time>
      </trkpt>
      <trkpt lat="43.93693" lon="1.91444">
        <ele>174.62</ele>
        <time>2020-10-25T12:00:55Z</time>
      </trkpt>
      <trkpt lat="43.93694" lon="1.91464">
        <ele>174.62</ele>
        <time>2020-10-25T12:01:07Z</time>
      </trkpt>
      <trkpt lat="43.93692" lon="1.91488">
        <ele>174.62</ele>
        <time>2020-10-25T12:01:23Z</time>
      </trkpt>
      <trkpt lat="43.93691" lon="1.91496">
        <ele>176.06</ele>
        <time>2020-10-25T12:01:27Z</time>
      </trkpt>
      <trkpt lat="43.93679" lon="1.9153">
        <ele>176.54</ele>
        <time>2020-10-25T12:01:45Z</time>
      </trkpt>
      <trkpt lat="43.93661" lon="1.91546">
        <ele>176.54</ele>
        <time>2020-10-25T12:02:00Z</time>
      </trkpt>
      <trkpt lat="43.93645" lon="1.91564">
        <ele>176.06</ele>
        <time>2020-10-25T12:02:15Z</time>
      </trkpt>
      <trkpt lat="43.93629" lon="1.91589">
        <ele>176.06</ele>
        <time>2020-10-25T12:02:35Z</time>
      </trkpt>
      <trkpt lat="43.93623" lon="1.916">
        <ele>176.06</ele>
        <time>2020-10-25T12:02:43Z</time>
      </trkpt>
      <trkpt lat="43.93607" lon="1.91587">
        <ele>176.06</ele>
        <time>2020-10-25T12:03:01Z</time>
      </trkpt>
      <trkpt lat="43.93602" lon="1.91587">
        <ele>175.1</ele>
        <time>2020-10-25T12:03:11Z</time>
      </trkpt>
      <trkpt lat="43.93588" lon="1.91602">
        <ele>174.62</ele>
        <time>2020-10-25T12:03:28Z</time>
      </trkpt>
      <trkpt lat="43.9358" lon="1.91606">
        <ele>174.62</ele>
        <time>2020-10-25T12:03:36Z</time>
      </trkpt>
      <trkpt lat="43.93555" lon="1.91607">
        <ele>174.62</ele>
        <time>2020-10-25T12:03:55Z</time>
      </trkpt>
      <trkpt lat="43.93528" lon="1.91607">
        <ele>174.62</ele>
        <time>2020-10-25T12:04:14Z</time>
      </trkpt>
      <trkpt lat="43.93502" lon="1.91611">
        <ele>174.14</ele>
        <time>2020-10-25T12:04:32Z</time>
      </trkpt>
      <trkpt lat="43.93475" lon="1.91618">
        <ele>173.66</ele>
        <time>2020-10-25T12:04:51Z</time>
      </trkpt>
      <trkpt lat="43.93453" lon="1.91629">
        <ele>173.66</ele>
        <time>2020-10-25T12:05:09Z</time>
      </trkpt>
      <trkpt lat="43.93435" lon="1.91638">
        <ele>173.66</ele>
        <time>2020-10-25T12:05:24Z</time>
      </trkpt>
      <trkpt lat="43.93413" lon="1.91651">
        <ele>173.17</ele>
        <time>2020-10-25T12:05:41Z</time>
      </trkpt>
      <trkpt lat="43.93393" lon="1.91664">
        <ele>172.69</ele>
        <time>2020-10-25T12:05:56Z</time>
      </trkpt>
      <trkpt lat="43.9338" lon="1.9168">
        <ele>172.69</ele>
        <time>2020-10-25T12:06:11Z</time>
      </trkpt>
      <trkpt lat="43.93377" lon="1.91701">
        <ele>172.69</ele>
        <time>2020-10-25T12:06:28Z</time>
      </trkpt>
      <trkpt lat="43.93376" lon="1.91706">
        <ele>172.69</ele>
        <time>2020-10-25T12:06:40Z</time>
      </trkpt>
      <trkpt lat="43.93377" lon="1.91708">
        <ele>172.69</ele>
        <time>2020-10-25T12:06:43Z</time>
      </trkpt>
      <trkpt lat="43.93396" lon="1.91727">
        <ele>172.69</ele>
        <time>2020-10-25T12:07:04Z</time>
      </trkpt>
      <trkpt lat="43.93411" lon="1.91748">
        <ele>172.69</ele>
        <time>2020-10-25T12:07:22Z</time>
      </trkpt>
      <trkpt lat="43.93423" lon="1.91767">
        <ele>172.21</ele>
        <time>2020-10-25T12:07:38Z</time>
      </trkpt>
      <trkpt lat="43.93426" lon="1.91779">
        <ele>171.73</ele>
        <time>2020-10-25T12:07:52Z</time>
      </trkpt>
      <trkpt lat="43.93452" lon="1.91782">
        <ele>171.73</ele>
        <time>2020-10-25T12:08:12Z</time>
      </trkpt>
      <trkpt lat="43.9346" lon="1.91777">
        <ele>171.73</ele>
        <time>2020-10-25T12:08:19Z</time>
      </trkpt>
      <trkpt lat="43.9347" lon="1.91771">
        <ele>173.17</ele>
        <time>2020-10-25T12:08:27Z</time>
      </trkpt>
      <trkpt lat="43.93487" lon="1.91761">
        <ele>173.66</ele>
        <time>2020-10-25T12:08:43Z</time>
      </trkpt>
      <trkpt lat="43.93495" lon="1.91762">
        <ele>173.66</ele>
        <time>2020-10-25T12:08:57Z</time>
      </trkpt>
      <trkpt lat="43.93497" lon="1.91761">
        <ele>173.66</ele>
        <time>2020-10-25T12:09:00Z</time>
      </trkpt>
      <trkpt lat="43.93506" lon="1.91768">
        <ele>173.66</ele>
        <time>2020-10-25T12:09:12Z</time>
      </trkpt>
      <trkpt lat="43.93518" lon="1.91778">
        <ele>174.14</ele>
        <time>2020-10-25T12:09:27Z</time>
      </trkpt>
      <trkpt lat="43.93526" lon="1.91785">
        <ele>174.14</ele>
        <time>2020-10-25T12:09:46Z</time>
      </trkpt>
      <trkpt lat="43.93538" lon="1.918">
        <ele>174.14</ele>
        <time>2020-10-25T12:10:02Z</time>
      </trkpt>
      <trkpt lat="43.9354" lon="1.91803">
        <ele>174.62</ele>
        <time>2020-10-25T12:10:04Z</time>
      </trkpt>
      <trkpt lat="43.93556" lon="1.91833">
        <ele>175.1</ele>
        <time>2020-10-25T12:10:23Z</time>
      </trkpt>
      <trkpt lat="43.9357" lon="1.91859">
        <ele>175.1</ele>
        <time>2020-10-25T12:10:41Z</time>
      </trkpt>
      <trkpt lat="43.93583" lon="1.91887">
        <ele>176.06</ele>
        <time>2020-10-25T12:11:02Z</time>
      </trkpt>
      <trkpt lat="43.93591" lon="1.91918">
        <ele>176.54</ele>
        <time>2020-10-25T12:11:20Z</time>
      </trkpt>
      <trkpt lat="43.93605" lon="1.91948">
        <ele>177.02</ele>
        <time>2020-10-25T12:11:40Z</time>
      </trkpt>
      <trkpt lat="43.93612" lon="1.91958">
        <ele>177.5</ele>
        <time>2020-10-25T12:11:51Z</time>
      </trkpt>
      <trkpt lat="43.93613" lon="1.9196">
        <ele>177.5</ele>
        <time>2020-10-25T12:11:53Z</time>
      </trkpt>
      <trkpt lat="43.93634" lon="1.91968">
        <ele>178.46</ele>
        <time>2020-10-25T12:12:11Z</time>
      </trkpt>
      <trkpt lat="43.93653" lon="1.91966">
        <ele>179.42</ele>
        <time>2020-10-25T12:12:27Z</time>
      </trkpt>
      <trkpt lat="43.93679" lon="1.9198">
        <ele>180.38</ele>
        <time>2020-10-25T12:12:49Z</time>
      </trkpt>
      <trkpt lat="43.93707" lon="1.91993">
        <ele>181.35</ele>
        <time>2020-10-25T12:13:13Z</time>
      </trkpt>
      <trkpt lat="43.93736" lon="1.92">
        <ele>183.27</ele>
        <time>2020-10-25T12:13:38Z</time>
      </trkpt>
      <trkpt lat="43.93757" lon="1.92003">
        <ele>183.75</ele>
        <time>2020-10-25T12:13:57Z</time>
      </trkpt>
      <trkpt lat="43.93784" lon="1.91998">
        <ele>185.67</ele>
        <time>2020-10-25T12:14:20Z</time>
      </trkpt>
      <trkpt lat="43.93813" lon="1.91989">
        <ele>186.63</ele>
        <time>2020-10-25T12:14:45Z</time>
      </trkpt>
      <trkpt lat="43.93835" lon="1.91982">
        <ele>187.59</ele>
        <time>2020-10-25T12:15:05Z</time>
      </trkpt>
      <trkpt lat="43.93859" lon="1.91973">
        <ele>188.08</ele>
        <time>2020-10-25T12:15:26Z</time>
      </trkpt>
      <trkpt lat="43.93869" lon="1.91972">
        <ele>189.04</ele>
        <time>2020-10-25T12:15:43Z</time>
      </trkpt>
      <trkpt lat="43.93871" lon="1.91969">
        <ele>189.04</ele>
        <time>2020-10-25T12:15:57Z</time>
      </trkpt>
      <trkpt lat="43.93877" lon="1.91966">
        <ele>188.56</ele>
        <time>2020-10-25T12:16:18Z</time>
      </trkpt>
      <trkpt lat="43.93905" lon="1.91961">
        <ele>189.52</ele>
        <time>2020-10-25T12:16:40Z</time>
      </trkpt>
      <trkpt lat="43.93934" lon="1.91954">
        <ele>190</ele>
        <time>2020-10-25T12:17:03Z</time>
      </trkpt>
      <trkpt lat="43.93961" lon="1.91953">
        <ele>190.48</ele>
        <time>2020-10-25T12:17:24Z</time>
      </trkpt>
      <trkpt lat="43.93988" lon="1.9195">
        <ele>191.44</ele>
        <time>2020-10-25T12:17:45Z</time>
      </trkpt>
      <trkpt lat="43.93999" lon="1.91952">
        <ele>191.44</ele>
        <time>2020-10-25T12:18:03Z</time>
      </trkpt>
      <trkpt lat="43.94002" lon="1.91955">
        <ele>190.96</ele>
        <time>2020-10-25T12:18:11Z</time>
      </trkpt>
      <trkpt lat="43.94003" lon="1.91962">
        <ele>190.96</ele>
        <time>2020-10-25T12:18:26Z</time>
      </trkpt>
      <trkpt lat="43.94009" lon="1.91975">
        <ele>190.96</ele>
        <time>2020-10-25T12:18:43Z</time>
      </trkpt>
      <trkpt lat="43.94017" lon="1.91995">
        <ele>191.92</ele>
        <time>2020-10-25T12:19:01Z</time>
      </trkpt>
      <trkpt lat="43.94021" lon="1.9201">
        <ele>192.88</ele>
        <time>2020-10-25T12:19:17Z</time>
      </trkpt>
      <trkpt lat="43.94022" lon="1.92016">
        <ele>192.88</ele>
        <time>2020-10-25T12:19:29Z</time>
      </trkpt>
      <trkpt lat="43.94023" lon="1.92022">
        <ele>192.88</ele>
        <time>2020-10-25T12:19:42Z</time>
      </trkpt>
      <trkpt lat="43.94025" lon="1.92022">
        <ele>192.88</ele>
        <time>2020-10-25T12:19:50Z</time>
      </trkpt>
      <trkpt lat="43.94037" lon="1.92038">
        <ele>193.84</ele>
        <time>2020-10-25T12:20:09Z</time>
      </trkpt>
      <trkpt lat="43.94042" lon="1.92047">
        <ele>194.32</ele>
        <time>2020-10-25T12:20:31Z</time>
      </trkpt>
      <trkpt lat="43.94059" lon="1.92072">
        <ele>195.77</ele>
        <time>2020-10-25T12:20:52Z</time>
      </trkpt>
      <trkpt lat="43.94075" lon="1.92092">
        <ele>198.65</ele>
        <time>2020-10-25T12:21:11Z</time>
      </trkpt>
      <trkpt lat="43.94085" lon="1.92101">
        <ele>200.09</ele>
        <time>2020-10-25T12:21:22Z</time>
      </trkpt>
      <trkpt lat="43.94101" lon="1.92115">
        <ele>202.98</ele>
        <time>2020-10-25T12:21:41Z</time>
      </trkpt>
      <trkpt lat="43.94114" lon="1.92128">
        <ele>206.34</ele>
        <time>2020-10-25T12:21:58Z</time>
      </trkpt>
      <trkpt lat="43.94126" lon="1.92139">
        <ele>209.22</ele>
        <time>2020-10-25T12:22:16Z</time>
      </trkpt>
      <trkpt lat="43.94139" lon="1.92152">
        <ele>212.59</ele>
        <time>2020-10-25T12:22:36Z</time>
      </trkpt>
      <trkpt lat="43.94146" lon="1.9216">
        <ele>214.03</ele>
        <time>2020-10-25T12:22:50Z</time>
      </trkpt>
      <trkpt lat="43.94147" lon="1.9216">
        <ele>214.03</ele>
        <time>2020-10-25T12:23:08Z</time>
      </trkpt>
      <trkpt lat="43.94151" lon="1.92162">
        <ele>214.99</ele>
        <time>2020-10-25T12:23:27Z</time>
      </trkpt>
      <trkpt lat="43.94152" lon="1.92163">
        <ele>214.99</ele>
        <time>2020-10-25T12:23:28Z</time>
      </trkpt>
      <trkpt lat="43.94168" lon="1.9217">
        <ele>218.36</ele>
        <time>2020-10-25T12:23:46Z</time>
      </trkpt>
      <trkpt lat="43.94183" lon="1.92173">
        <ele>221.24</ele>
        <time>2020-10-25T12:24:02Z</time>
      </trkpt>
      <trkpt lat="43.94197" lon="1.92181">
        <ele>223.64</ele>
        <time>2020-10-25T12:24:18Z</time>
      </trkpt>
      <trkpt lat="43.94211" lon="1.92189">
        <ele>225.57</ele>
        <time>2020-10-25T12:24:36Z</time>
      </trkpt>
      <trkpt lat="43.94212" lon="1.9219">
        <ele>225.57</ele>
        <time>2020-10-25T12:24:51Z</time>
      </trkpt>
      <trkpt lat="43.94222" lon="1.92193">
        <ele>226.53</ele>
        <time>2020-10-25T12:25:05Z</time>
      </trkpt>
      <trkpt lat="43.94242" lon="1.92197">
        <ele>229.41</ele>
        <time>2020-10-25T12:25:23Z</time>
      </trkpt>
      <trkpt lat="43.9426" lon="1.92209">
        <ele>231.81</ele>
        <time>2020-10-25T12:25:41Z</time>
      </trkpt>
      <trkpt lat="43.94266" lon="1.9223">
        <ele>235.18</ele>
        <time>2020-10-25T12:26:00Z</time>
      </trkpt>
      <trkpt lat="43.94265" lon="1.92235">
        <ele>235.18</ele>
        <time>2020-10-25T12:26:16Z</time>
      </trkpt>
      <trkpt lat="43.94266" lon="1.92238">
        <ele>235.18</ele>
        <time>2020-10-25T12:26:29Z</time>
      </trkpt>
      <trkpt lat="43.94265" lon="1.92238">
        <ele>235.18</ele>
        <time>2020-10-25T12:26:45Z</time>
      </trkpt>
      <trkpt lat="43.94264" lon="1.9224">
        <ele>235.18</ele>
        <time>2020-10-25T12:27:02Z</time>
      </trkpt>
      <trkpt lat="43.94262" lon="1.92241">
        <ele>234.7</ele>
        <time>2020-10-25T12:27:34Z</time>
      </trkpt>
      <trkpt lat="43.94264" lon="1.92239">
        <ele>234.7</ele>
        <time>2020-10-25T12:28:21Z</time>
      </trkpt>
      <trkpt lat="43.94265" lon="1.9224">
        <ele>234.7</ele>
        <time>2020-10-25T12:28:58Z</time>
      </trkpt>
      <trkpt lat="43.94267" lon="1.9224">
        <ele>234.22</ele>
        <time>2020-10-25T12:29:11Z</time>
      </trkpt>
      <trkpt lat="43.94268" lon="1.92249">
        <ele>234.22</ele>
        <time>2020-10-25T12:29:25Z</time>
      </trkpt>
      <trkpt lat="43.94269" lon="1.92252">
        <ele>234.22</ele>
        <time>2020-10-25T12:29:27Z</time>
      </trkpt>
      <trkpt lat="43.94277" lon="1.92277">
        <ele>233.26</ele>
        <time>2020-10-25T12:29:45Z</time>
      </trkpt>
      <trkpt lat="43.9429" lon="1.92298">
        <ele>233.26</ele>
        <time>2020-10-25T12:30:03Z</time>
      </trkpt>
      <trkpt lat="43.94304" lon="1.92327">
        <ele>234.22</ele>
        <time>2020-10-25T12:30:22Z</time>
      </trkpt>
      <trkpt lat="43.94318" lon="1.9235">
        <ele>234.7</ele>
        <time>2020-10-25T12:30:39Z</time>
      </trkpt>
      <trkpt lat="43.94343" lon="1.92374">
        <ele>234.22</ele>
        <time>2020-10-25T12:31:01Z</time>
      </trkpt>
      <trkpt lat="43.94363" lon="1.92395">
        <ele>234.22</ele>
        <time>2020-10-25T12:31:21Z</time>
      </trkpt>
      <trkpt lat="43.94369" lon="1.92398">
        <ele>234.22</ele>
        <time>2020-10-25T12:31:32Z</time>
      </trkpt>
      <trkpt lat="43.94375" lon="1.924">
        <ele>234.22</ele>
        <time>2020-10-25T12:31:45Z</time>
      </trkpt>
      <trkpt lat="43.94375" lon="1.92403">
        <ele>234.22</ele>
        <time>2020-10-25T12:31:59Z</time>
      </trkpt>
      <trkpt lat="43.94375" lon="1.924">
        <ele>234.22</ele>
        <time>2020-10-25T12:32:12Z</time>
      </trkpt>
      <trkpt lat="43.94376" lon="1.92401">
        <ele>234.22</ele>
        <time>2020-10-25T12:32:23Z</time>
      </trkpt>
      <trkpt lat="43.9438" lon="1.92401">
        <ele>234.22</ele>
        <time>2020-10-25T12:32:29Z</time>
      </trkpt>
      <trkpt lat="43.94387" lon="1.92405">
        <ele>233.74</ele>
        <time>2020-10-25T12:32:36Z</time>
      </trkpt>
      <trkpt lat="43.94398" lon="1.92411">
        <ele>233.74</ele>
        <time>2020-10-25T12:32:45Z</time>
      </trkpt>
      <trkpt lat="43.94399" lon="1.92414">
        <ele>233.74</ele>
        <time>2020-10-25T12:32:52Z</time>
      </trkpt>
      <trkpt lat="43.94417" lon="1.92422">
        <ele>233.74</ele>
        <time>2020-10-25T12:33:08Z</time>
      </trkpt>
      <trkpt lat="43.94437" lon="1.92435">
        <ele>235.18</ele>
        <time>2020-10-25T12:33:28Z</time>
      </trkpt>
      <trkpt lat="43.94449" lon="1.92441">
        <ele>235.66</ele>
        <time>2020-10-25T12:33:43Z</time>
      </trkpt>
      <trkpt lat="43.94453" lon="1.92444">
        <ele>235.66</ele>
        <time>2020-10-25T12:33:48Z</time>
      </trkpt>
      <trkpt lat="43.94459" lon="1.9245">
        <ele>235.66</ele>
        <time>2020-10-25T12:33:54Z</time>
      </trkpt>
      <trkpt lat="43.94472" lon="1.92462">
        <ele>236.62</ele>
        <time>2020-10-25T12:34:08Z</time>
      </trkpt>
      <trkpt lat="43.94491" lon="1.92476">
        <ele>237.58</ele>
        <time>2020-10-25T12:34:28Z</time>
      </trkpt>
      <trkpt lat="43.9451" lon="1.92496">
        <ele>238.54</ele>
        <time>2020-10-25T12:34:46Z</time>
      </trkpt>
      <trkpt lat="43.94526" lon="1.92511">
        <ele>239.02</ele>
        <time>2020-10-25T12:35:01Z</time>
      </trkpt>
      <trkpt lat="43.94546" lon="1.92533">
        <ele>239.51</ele>
        <time>2020-10-25T12:35:18Z</time>
      </trkpt>
      <trkpt lat="43.94568" lon="1.92552">
        <ele>239.51</ele>
        <time>2020-10-25T12:35:36Z</time>
      </trkpt>
      <trkpt lat="43.9457" lon="1.92553">
        <ele>238.06</ele>
        <time>2020-10-25T12:35:38Z</time>
      </trkpt>
      <trkpt lat="43.94588" lon="1.92567">
        <ele>236.14</ele>
        <time>2020-10-25T12:35:55Z</time>
      </trkpt>
      <trkpt lat="43.94594" lon="1.92573">
        <ele>235.18</ele>
        <time>2020-10-25T12:36:11Z</time>
      </trkpt>
      <trkpt lat="43.94606" lon="1.92582">
        <ele>233.74</ele>
        <time>2020-10-25T12:36:29Z</time>
      </trkpt>
      <trkpt lat="43.94612" lon="1.92583">
        <ele>233.26</ele>
        <time>2020-10-25T12:36:34Z</time>
      </trkpt>
      <trkpt lat="43.94627" lon="1.92576">
        <ele>231.81</ele>
        <time>2020-10-25T12:36:50Z</time>
      </trkpt>
      <trkpt lat="43.94645" lon="1.92569">
        <ele>229.41</ele>
        <time>2020-10-25T12:37:07Z</time>
      </trkpt>
      <trkpt lat="43.9465" lon="1.92571">
        <ele>227.97</ele>
        <time>2020-10-25T12:37:13Z</time>
      </trkpt>
      <trkpt lat="43.94658" lon="1.92573">
        <ele>226.53</ele>
        <time>2020-10-25T12:37:22Z</time>
      </trkpt>
      <trkpt lat="43.94668" lon="1.92576">
        <ele>225.57</ele>
        <time>2020-10-25T12:37:34Z</time>
      </trkpt>
      <trkpt lat="43.94672" lon="1.92574">
        <ele>225.09</ele>
        <time>2020-10-25T12:37:38Z</time>
      </trkpt>
      <trkpt lat="43.94679" lon="1.92569">
        <ele>224.61</ele>
        <time>2020-10-25T12:37:45Z</time>
      </trkpt>
      <trkpt lat="43.94684" lon="1.92569">
        <ele>224.61</ele>
        <time>2020-10-25T12:37:49Z</time>
      </trkpt>
      <trkpt lat="43.94694" lon="1.92577">
        <ele>222.68</ele>
        <time>2020-10-25T12:38:06Z</time>
      </trkpt>
      <trkpt lat="43.94705" lon="1.92578">
        <ele>220.76</ele>
        <time>2020-10-25T12:38:20Z</time>
      </trkpt>
      <trkpt lat="43.94719" lon="1.92585">
        <ele>217.4</ele>
        <time>2020-10-25T12:38:36Z</time>
      </trkpt>
      <trkpt lat="43.94737" lon="1.92593">
        <ele>214.51</ele>
        <time>2020-10-25T12:38:53Z</time>
      </trkpt>
      <trkpt lat="43.94753" lon="1.92604">
        <ele>212.11</ele>
        <time>2020-10-25T12:39:10Z</time>
      </trkpt>
      <trkpt lat="43.94768" lon="1.92612">
        <ele>208.74</ele>
        <time>2020-10-25T12:39:24Z</time>
      </trkpt>
      <trkpt lat="43.94782" lon="1.92628">
        <ele>205.86</ele>
        <time>2020-10-25T12:39:40Z</time>
      </trkpt>
      <trkpt lat="43.94795" lon="1.92648">
        <ele>203.94</ele>
        <time>2020-10-25T12:39:56Z</time>
      </trkpt>
      <trkpt lat="43.948" lon="1.92661">
        <ele>203.46</ele>
        <time>2020-10-25T12:40:07Z</time>
      </trkpt>
      <trkpt lat="43.94804" lon="1.92671">
        <ele>202.98</ele>
        <time>2020-10-25T12:40:22Z</time>
      </trkpt>
      <trkpt lat="43.94806" lon="1.92683">
        <ele>202.49</ele>
        <time>2020-10-25T12:40:36Z</time>
      </trkpt>
      <trkpt lat="43.94808" lon="1.92687">
        <ele>202.01</ele>
        <time>2020-10-25T12:40:44Z</time>
      </trkpt>
      <trkpt lat="43.94813" lon="1.92682">
        <ele>201.53</ele>
        <time>2020-10-25T12:40:57Z</time>
      </trkpt>
      <trkpt lat="43.94815" lon="1.92684">
        <ele>201.53</ele>
        <time>2020-10-25T12:41:00Z</time>
      </trkpt>
      <trkpt lat="43.9483" lon="1.92704">
        <ele>200.09</ele>
        <time>2020-10-25T12:41:18Z</time>
      </trkpt>
      <trkpt lat="43.94846" lon="1.92725">
        <ele>198.65</ele>
        <time>2020-10-25T12:41:35Z</time>
      </trkpt>
      <trkpt lat="43.94865" lon="1.92749">
        <ele>197.69</ele>
        <time>2020-10-25T12:41:55Z</time>
      </trkpt>
      <trkpt lat="43.94884" lon="1.92776">
        <ele>196.73</ele>
        <time>2020-10-25T12:42:16Z</time>
      </trkpt>
      <trkpt lat="43.94906" lon="1.92778">
        <ele>197.69</ele>
        <time>2020-10-25T12:42:35Z</time>
      </trkpt>
      <trkpt lat="43.94919" lon="1.9278">
        <ele>200.57</ele>
        <time>2020-10-25T12:42:47Z</time>
      </trkpt>
      <trkpt lat="43.94942" lon="1.92796">
        <ele>201.05</ele>
        <time>2020-10-25T12:43:11Z</time>
      </trkpt>
      <trkpt lat="43.94957" lon="1.92805">
        <ele>202.49</ele>
        <time>2020-10-25T12:43:27Z</time>
      </trkpt>
      <trkpt lat="43.94978" lon="1.92808">
        <ele>205.38</ele>
        <time>2020-10-25T12:43:48Z</time>
      </trkpt>
      <trkpt lat="43.94997" lon="1.92798">
        <ele>207.78</ele>
        <time>2020-10-25T12:44:09Z</time>
      </trkpt>
      <trkpt lat="43.95013" lon="1.92786">
        <ele>209.22</ele>
        <time>2020-10-25T12:44:29Z</time>
      </trkpt>
      <trkpt lat="43.95019" lon="1.92784">
        <ele>209.22</ele>
        <time>2020-10-25T12:44:42Z</time>
      </trkpt>
      <trkpt lat="43.95034" lon="1.92768">
        <ele>210.19</ele>
        <time>2020-10-25T12:45:00Z</time>
      </trkpt>
      <trkpt lat="43.95052" lon="1.92743">
        <ele>211.63</ele>
        <time>2020-10-25T12:45:22Z</time>
      </trkpt>
      <trkpt lat="43.95061" lon="1.92747">
        <ele>211.63</ele>
        <time>2020-10-25T12:45:35Z</time>
      </trkpt>
      <trkpt lat="43.95072" lon="1.92774">
        <ele>208.26</ele>
        <time>2020-10-25T12:45:54Z</time>
      </trkpt>
      <trkpt lat="43.95075" lon="1.92787">
        <ele>207.78</ele>
        <time>2020-10-25T12:46:10Z</time>
      </trkpt>
      <trkpt lat="43.95085" lon="1.92815">
        <ele>204.9</ele>
        <time>2020-10-25T12:46:29Z</time>
      </trkpt>
      <trkpt lat="43.95094" lon="1.92839">
        <ele>202.01</ele>
        <time>2020-10-25T12:46:48Z</time>
      </trkpt>
      <trkpt lat="43.95103" lon="1.92871">
        <ele>199.61</ele>
        <time>2020-10-25T12:47:09Z</time>
      </trkpt>
      <trkpt lat="43.95106" lon="1.92884">
        <ele>198.65</ele>
        <time>2020-10-25T12:47:23Z</time>
      </trkpt>
      <trkpt lat="43.95106" lon="1.92887">
        <ele>198.65</ele>
        <time>2020-10-25T12:47:41Z</time>
      </trkpt>
      <trkpt lat="43.95115" lon="1.9291">
        <ele>196.73</ele>
        <time>2020-10-25T12:47:58Z</time>
      </trkpt>
      <trkpt lat="43.95124" lon="1.92941">
        <ele>194.32</ele>
        <time>2020-10-25T12:48:17Z</time>
      </trkpt>
      <trkpt lat="43.95134" lon="1.92977">
        <ele>191.92</ele>
        <time>2020-10-25T12:48:39Z</time>
      </trkpt>
      <trkpt lat="43.95138" lon="1.92991">
        <ele>190.96</ele>
        <time>2020-10-25T12:48:55Z</time>
      </trkpt>
      <trkpt lat="43.9515" lon="1.93021">
        <ele>188.08</ele>
        <time>2020-10-25T12:49:14Z</time>
      </trkpt>
      <trkpt lat="43.9516" lon="1.93049">
        <ele>186.15</ele>
        <time>2020-10-25T12:49:33Z</time>
      </trkpt>
      <trkpt lat="43.95166" lon="1.93068">
        <ele>184.71</ele>
        <time>2020-10-25T12:49:48Z</time>
      </trkpt>
      <trkpt lat="43.95167" lon="1.93074">
        <ele>184.23</ele>
        <time>2020-10-25T12:50:08Z</time>
      </trkpt>
      <trkpt lat="43.9517" lon="1.93083">
        <ele>183.27</ele>
        <time>2020-10-25T12:50:34Z</time>
      </trkpt>
      <trkpt lat="43.95187" lon="1.93095">
        <ele>182.31</ele>
        <time>2020-10-25T12:50:49Z</time>
      </trkpt>
      <trkpt lat="43.95206" lon="1.93108">
        <ele>181.35</ele>
        <time>2020-10-25T12:51:07Z</time>
      </trkpt>
      <trkpt lat="43.95223" lon="1.93121">
        <ele>180.87</ele>
        <time>2020-10-25T12:51:22Z</time>
      </trkpt>
      <trkpt lat="43.95244" lon="1.93139">
        <ele>180.87</ele>
        <time>2020-10-25T12:51:41Z</time>
      </trkpt>
      <trkpt lat="43.95257" lon="1.93149">
        <ele>180.87</ele>
        <time>2020-10-25T12:51:55Z</time>
      </trkpt>
      <trkpt lat="43.9527" lon="1.93166">
        <ele>181.35</ele>
        <time>2020-10-25T12:52:13Z</time>
      </trkpt>
      <trkpt lat="43.95281" lon="1.93172">
        <ele>181.35</ele>
        <time>2020-10-25T12:52:29Z</time>
      </trkpt>
      <trkpt lat="43.95292" lon="1.93174">
        <ele>180.87</ele>
        <time>2020-10-25T12:52:45Z</time>
      </trkpt>
      <trkpt lat="43.95296" lon="1.93177">
        <ele>180.38</ele>
        <time>2020-10-25T12:52:58Z</time>
      </trkpt>
      <trkpt lat="43.95294" lon="1.93183">
        <ele>180.38</ele>
        <time>2020-10-25T12:53:21Z</time>
      </trkpt>
      <trkpt lat="43.95295" lon="1.93184">
        <ele>180.38</ele>
        <time>2020-10-25T12:53:38Z</time>
      </trkpt>
      <trkpt lat="43.95297" lon="1.93182">
        <ele>180.38</ele>
        <time>2020-10-25T12:54:10Z</time>
      </trkpt>
      <trkpt lat="43.95297" lon="1.9318">
        <ele>180.38</ele>
        <time>2020-10-25T12:54:38Z</time>
      </trkpt>
      <trkpt lat="43.95298" lon="1.93179">
        <ele>180.38</ele>
        <time>2020-10-25T12:55:04Z</time>
      </trkpt>
      <trkpt lat="43.95297" lon="1.93177">
        <ele>180.38</ele>
        <time>2020-10-25T12:55:28Z</time>
      </trkpt>
      <trkpt lat="43.95297" lon="1.93181">
        <ele>180.38</ele>
        <time>2020-10-25T12:55:43Z</time>
      </trkpt>
      <trkpt lat="43.95295" lon="1.93184">
        <ele>180.38</ele>
        <time>2020-10-25T12:55:46Z</time>
      </trkpt>
      <trkpt lat="43.95294" lon="1.93187">
        <ele>181.35</ele>
        <time>2020-10-25T12:55:48Z</time>
      </trkpt>
      <trkpt lat="43.95294" lon="1.9319">
        <ele>181.35</ele>
        <time>2020-10-25T12:55:50Z</time>
      </trkpt>
      <trkpt lat="43.95295" lon="1.93196">
        <ele>181.83</ele>
        <time>2020-10-25T12:55:54Z</time>
      </trkpt>
      <trkpt lat="43.95309" lon="1.93213">
        <ele>182.79</ele>
        <time>2020-10-25T12:56:12Z</time>
      </trkpt>
      <trkpt lat="43.95308" lon="1.9321">
        <ele>182.79</ele>
        <time>2020-10-25T12:56:31Z</time>
      </trkpt>
      <trkpt lat="43.9531" lon="1.93213">
        <ele>182.79</ele>
        <time>2020-10-25T12:56:49Z</time>
      </trkpt>
      <trkpt lat="43.95308" lon="1.93212">
        <ele>182.79</ele>
        <time>2020-10-25T12:56:57Z</time>
      </trkpt>
      <trkpt lat="43.95305" lon="1.9321">
        <ele>182.79</ele>
        <time>2020-10-25T12:57:01Z</time>
      </trkpt>
      <trkpt lat="43.95288" lon="1.93197">
        <ele>182.79</ele>
        <time>2020-10-25T12:57:20Z</time>
      </trkpt>
      <trkpt lat="43.95286" lon="1.93192">
        <ele>182.79</ele>
        <time>2020-10-25T12:57:36Z</time>
      </trkpt>
      <trkpt lat="43.95289" lon="1.93188">
        <ele>182.79</ele>
        <time>2020-10-25T12:57:52Z</time>
      </trkpt>
      <trkpt lat="43.95292" lon="1.93185">
        <ele>181.83</ele>
        <time>2020-10-25T12:58:05Z</time>
      </trkpt>
      <trkpt lat="43.95304" lon="1.9317">
        <ele>180.38</ele>
        <time>2020-10-25T12:58:20Z</time>
      </trkpt>
      <trkpt lat="43.95321" lon="1.93157">
        <ele>179.9</ele>
        <time>2020-10-25T12:58:36Z</time>
      </trkpt>
      <trkpt lat="43.95349" lon="1.93127">
        <ele>179.9</ele>
        <time>2020-10-25T12:58:57Z</time>
      </trkpt>
      <trkpt lat="43.95376" lon="1.93101">
        <ele>179.9</ele>
        <time>2020-10-25T12:59:19Z</time>
      </trkpt>
      <trkpt lat="43.95404" lon="1.93074">
        <ele>179.9</ele>
        <time>2020-10-25T12:59:43Z</time>
      </trkpt>
      <trkpt lat="43.95432" lon="1.93047">
        <ele>180.87</ele>
        <time>2020-10-25T13:00:08Z</time>
      </trkpt>
      <trkpt lat="43.9546" lon="1.93023">
        <ele>181.35</ele>
        <time>2020-10-25T13:00:31Z</time>
      </trkpt>
      <trkpt lat="43.95487" lon="1.93003">
        <ele>181.35</ele>
        <time>2020-10-25T13:00:53Z</time>
      </trkpt>
      <trkpt lat="43.95509" lon="1.92981">
        <ele>181.83</ele>
        <time>2020-10-25T13:01:13Z</time>
      </trkpt>
      <trkpt lat="43.95532" lon="1.92951">
        <ele>182.31</ele>
        <time>2020-10-25T13:01:36Z</time>
      </trkpt>
      <trkpt lat="43.95549" lon="1.92929">
        <ele>182.31</ele>
        <time>2020-10-25T13:01:59Z</time>
      </trkpt>
      <trkpt lat="43.9555" lon="1.92931">
        <ele>182.31</ele>
        <time>2020-10-25T13:02:23Z</time>
      </trkpt>
      <trkpt lat="43.95551" lon="1.92931">
        <ele>182.31</ele>
        <time>2020-10-25T13:02:55Z</time>
      </trkpt>
      <trkpt lat="43.95551" lon="1.92929">
        <ele>182.79</ele>
        <time>2020-10-25T13:03:24Z</time>
      </trkpt>
      <trkpt lat="43.95553" lon="1.92929">
        <ele>182.79</ele>
        <time>2020-10-25T13:03:41Z</time>
      </trkpt>
      <trkpt lat="43.95552" lon="1.92928">
        <ele>182.79</ele>
        <time>2020-10-25T13:04:09Z</time>
      </trkpt>
      <trkpt lat="43.95551" lon="1.9293">
        <ele>182.79</ele>
        <time>2020-10-25T13:04:24Z</time>
      </trkpt>
      <trkpt lat="43.95543" lon="1.92942">
        <ele>182.79</ele>
        <time>2020-10-25T13:04:42Z</time>
      </trkpt>
      <trkpt lat="43.95543" lon="1.92942">
        <ele>182.79</ele>
        <time>2020-10-25T13:04:58Z</time>
      </trkpt>
      <trkpt lat="43.95542" lon="1.92942">
        <ele>182.79</ele>
        <time>2020-10-25T13:05:01Z</time>
      </trkpt>
      <trkpt lat="43.95562" lon="1.92915">
        <ele>182.79</ele>
        <time>2020-10-25T13:05:24Z</time>
      </trkpt>
      <trkpt lat="43.95581" lon="1.92887">
        <ele>182.79</ele>
        <time>2020-10-25T13:05:47Z</time>
      </trkpt>
      <trkpt lat="43.9559" lon="1.9288">
        <ele>183.27</ele>
        <time>2020-10-25T13:05:59Z</time>
      </trkpt>
      <trkpt lat="43.95608" lon="1.92859">
        <ele>183.27</ele>
        <time>2020-10-25T13:06:17Z</time>
      </trkpt>
      <trkpt lat="43.95629" lon="1.92835">
        <ele>183.27</ele>
        <time>2020-10-25T13:06:39Z</time>
      </trkpt>
      <trkpt lat="43.95651" lon="1.92812">
        <ele>183.75</ele>
        <time>2020-10-25T13:07:01Z</time>
      </trkpt>
      <trkpt lat="43.95667" lon="1.92787">
        <ele>183.75</ele>
        <time>2020-10-25T13:07:20Z</time>
      </trkpt>
      <trkpt lat="43.95684" lon="1.92762">
        <ele>183.75</ele>
        <time>2020-10-25T13:07:39Z</time>
      </trkpt>
      <trkpt lat="43.95711" lon="1.92736">
        <ele>184.71</ele>
        <time>2020-10-25T13:08:03Z</time>
      </trkpt>
      <trkpt lat="43.95738" lon="1.92712">
        <ele>184.71</ele>
        <time>2020-10-25T13:08:26Z</time>
      </trkpt>
      <trkpt lat="43.95763" lon="1.92691">
        <ele>184.71</ele>
        <time>2020-10-25T13:08:47Z</time>
      </trkpt>
      <trkpt lat="43.95788" lon="1.92665">
        <ele>184.71</ele>
        <time>2020-10-25T13:09:10Z</time>
      </trkpt>
      <trkpt lat="43.95808" lon="1.9264">
        <ele>184.71</ele>
        <time>2020-10-25T13:09:30Z</time>
      </trkpt>
      <trkpt lat="43.95831" lon="1.92612">
        <ele>185.67</ele>
        <time>2020-10-25T13:09:52Z</time>
      </trkpt>
      <trkpt lat="43.95851" lon="1.92585">
        <ele>186.15</ele>
        <time>2020-10-25T13:10:13Z</time>
      </trkpt>
      <trkpt lat="43.95867" lon="1.92549">
        <ele>187.11</ele>
        <time>2020-10-25T13:10:36Z</time>
      </trkpt>
      <trkpt lat="43.95882" lon="1.92516">
        <ele>187.11</ele>
        <time>2020-10-25T13:10:56Z</time>
      </trkpt>
      <trkpt lat="43.95893" lon="1.92492">
        <ele>187.11</ele>
        <time>2020-10-25T13:11:12Z</time>
      </trkpt>
      <trkpt lat="43.95914" lon="1.9246">
        <ele>187.11</ele>
        <time>2020-10-25T13:11:36Z</time>
      </trkpt>
      <trkpt lat="43.95936" lon="1.92425">
        <ele>188.08</ele>
        <time>2020-10-25T13:12:00Z</time>
      </trkpt>
      <trkpt lat="43.95954" lon="1.92398">
        <ele>188.56</ele>
        <time>2020-10-25T13:12:21Z</time>
      </trkpt>
      <trkpt lat="43.95958" lon="1.92391">
        <ele>188.56</ele>
        <time>2020-10-25T13:12:27Z</time>
      </trkpt>
      <trkpt lat="43.95963" lon="1.92391">
        <ele>188.56</ele>
        <time>2020-10-25T13:12:39Z</time>
      </trkpt>
      <trkpt lat="43.95963" lon="1.92391">
        <ele>188.56</ele>
        <time>2020-10-25T13:12:40Z</time>
      </trkpt>
      <trkpt lat="43.95964" lon="1.92393">
        <ele>189.04</ele>
        <time>2020-10-25T13:12:52Z</time>
      </trkpt>
      <trkpt lat="43.95963" lon="1.92393">
        <ele>189.04</ele>
        <time>2020-10-25T13:13:09Z</time>
      </trkpt>
      <trkpt lat="43.95963" lon="1.92393">
        <ele>189.04</ele>
        <time>2020-10-25T13:13:13Z</time>
      </trkpt>
      <trkpt lat="43.95972" lon="1.92367">
        <ele>189.04</ele>
        <time>2020-10-25T13:13:30Z</time>
      </trkpt>
      <trkpt lat="43.95987" lon="1.92336">
        <ele>189.52</ele>
        <time>2020-10-25T13:13:51Z</time>
      </trkpt>
      <trkpt lat="43.95992" lon="1.92318">
        <ele>189.04</ele>
        <time>2020-10-25T13:14:08Z</time>
      </trkpt>
      <trkpt lat="43.95996" lon="1.92283">
        <ele>189.04</ele>
        <time>2020-10-25T13:14:27Z</time>
      </trkpt>
      <trkpt lat="43.95994" lon="1.92239">
        <ele>189.04</ele>
        <time>2020-10-25T13:14:51Z</time>
      </trkpt>
      <trkpt lat="43.95993" lon="1.92206">
        <ele>189.04</ele>
        <time>2020-10-25T13:15:08Z</time>
      </trkpt>
      <trkpt lat="43.95992" lon="1.9217">
        <ele>190</ele>
        <time>2020-10-25T13:15:27Z</time>
      </trkpt>
      <trkpt lat="43.95986" lon="1.92136">
        <ele>190.96</ele>
        <time>2020-10-25T13:15:46Z</time>
      </trkpt>
      <trkpt lat="43.95975" lon="1.92106">
        <ele>191.44</ele>
        <time>2020-10-25T13:16:05Z</time>
      </trkpt>
      <trkpt lat="43.95964" lon="1.92072">
        <ele>192.4</ele>
        <time>2020-10-25T13:16:25Z</time>
      </trkpt>
      <trkpt lat="43.95953" lon="1.92029">
        <ele>193.36</ele>
        <time>2020-10-25T13:16:49Z</time>
      </trkpt>
      <trkpt lat="43.95948" lon="1.92011">
        <ele>193.84</ele>
        <time>2020-10-25T13:17:01Z</time>
      </trkpt>
      <trkpt lat="43.9594" lon="1.91995">
        <ele>194.32</ele>
        <time>2020-10-25T13:17:19Z</time>
      </trkpt>
      <trkpt lat="43.95946" lon="1.91988">
        <ele>194.8</ele>
        <time>2020-10-25T13:17:32Z</time>
      </trkpt>
      <trkpt lat="43.95947" lon="1.91987">
        <ele>194.8</ele>
        <time>2020-10-25T13:17:33Z</time>
      </trkpt>
      <trkpt lat="43.95971" lon="1.91976">
        <ele>195.28</ele>
        <time>2020-10-25T13:17:52Z</time>
      </trkpt>
      <trkpt lat="43.95998" lon="1.91973">
        <ele>197.21</ele>
        <time>2020-10-25T13:18:14Z</time>
      </trkpt>
      <trkpt lat="43.96016" lon="1.91975">
        <ele>199.13</ele>
        <time>2020-10-25T13:18:31Z</time>
      </trkpt>
      <trkpt lat="43.96038" lon="1.91982">
        <ele>200.57</ele>
        <time>2020-10-25T13:18:51Z</time>
      </trkpt>
      <trkpt lat="43.96058" lon="1.9198">
        <ele>199.61</ele>
        <time>2020-10-25T13:19:08Z</time>
      </trkpt>
      <trkpt lat="43.96074" lon="1.91978">
        <ele>197.69</ele>
        <time>2020-10-25T13:19:24Z</time>
      </trkpt>
      <trkpt lat="43.96079" lon="1.91977">
        <ele>197.69</ele>
        <time>2020-10-25T13:19:33Z</time>
      </trkpt>
      <trkpt lat="43.96097" lon="1.91975">
        <ele>196.73</ele>
        <time>2020-10-25T13:19:48Z</time>
      </trkpt>
      <trkpt lat="43.96118" lon="1.91971">
        <ele>196.25</ele>
        <time>2020-10-25T13:20:05Z</time>
      </trkpt>
      <trkpt lat="43.96137" lon="1.91971">
        <ele>195.77</ele>
        <time>2020-10-25T13:20:20Z</time>
      </trkpt>
      <trkpt lat="43.96155" lon="1.91977">
        <ele>195.28</ele>
        <time>2020-10-25T13:20:34Z</time>
      </trkpt>
      <trkpt lat="43.9617" lon="1.91986">
        <ele>195.28</ele>
        <time>2020-10-25T13:20:49Z</time>
      </trkpt>
      <trkpt lat="43.96171" lon="1.91986">
        <ele>195.28</ele>
        <time>2020-10-25T13:20:50Z</time>
      </trkpt>
      <trkpt lat="43.96194" lon="1.91988">
        <ele>196.73</ele>
        <time>2020-10-25T13:21:10Z</time>
      </trkpt>
      <trkpt lat="43.96217" lon="1.91994">
        <ele>198.17</ele>
        <time>2020-10-25T13:21:29Z</time>
      </trkpt>
      <trkpt lat="43.96232" lon="1.91997">
        <ele>199.13</ele>
        <time>2020-10-25T13:21:42Z</time>
      </trkpt>
      <trkpt lat="43.96239" lon="1.91995">
        <ele>199.61</ele>
        <time>2020-10-25T13:21:48Z</time>
      </trkpt>
      <trkpt lat="43.96253" lon="1.91998">
        <ele>200.57</ele>
        <time>2020-10-25T13:22:02Z</time>
      </trkpt>
      <trkpt lat="43.96266" lon="1.91998">
        <ele>202.01</ele>
        <time>2020-10-25T13:22:15Z</time>
      </trkpt>
      <trkpt lat="43.96283" lon="1.92009">
        <ele>204.42</ele>
        <time>2020-10-25T13:22:32Z</time>
      </trkpt>
      <trkpt lat="43.96297" lon="1.9202">
        <ele>206.82</ele>
        <time>2020-10-25T13:22:48Z</time>
      </trkpt>
      <trkpt lat="43.96315" lon="1.9203">
        <ele>209.22</ele>
        <time>2020-10-25T13:23:06Z</time>
      </trkpt>
      <trkpt lat="43.96332" lon="1.92043">
        <ele>211.63</ele>
        <time>2020-10-25T13:23:24Z</time>
      </trkpt>
      <trkpt lat="43.96342" lon="1.9205">
        <ele>213.55</ele>
        <time>2020-10-25T13:23:39Z</time>
      </trkpt>
      <trkpt lat="43.96346" lon="1.92052">
        <ele>214.03</ele>
        <time>2020-10-25T13:23:45Z</time>
      </trkpt>
      <trkpt lat="43.96355" lon="1.92051">
        <ele>214.03</ele>
        <time>2020-10-25T13:23:58Z</time>
      </trkpt>
      <trkpt lat="43.96366" lon="1.92033">
        <ele>212.59</ele>
        <time>2020-10-25T13:24:15Z</time>
      </trkpt>
      <trkpt lat="43.96379" lon="1.92014">
        <ele>214.03</ele>
        <time>2020-10-25T13:24:32Z</time>
      </trkpt>
      <trkpt lat="43.9639" lon="1.91999">
        <ele>215.47</ele>
        <time>2020-10-25T13:24:49Z</time>
      </trkpt>
      <trkpt lat="43.96397" lon="1.92006">
        <ele>216.43</ele>
        <time>2020-10-25T13:25:02Z</time>
      </trkpt>
      <trkpt lat="43.96399" lon="1.92013">
        <ele>216.91</ele>
        <time>2020-10-25T13:25:13Z</time>
      </trkpt>
      <trkpt lat="43.96402" lon="1.92037">
        <ele>218.36</ele>
        <time>2020-10-25T13:25:28Z</time>
      </trkpt>
      <trkpt lat="43.96403" lon="1.92056">
        <ele>218.36</ele>
        <time>2020-10-25T13:25:37Z</time>
      </trkpt>
      <trkpt lat="43.96396" lon="1.92079">
        <ele>218.36</ele>
        <time>2020-10-25T13:25:54Z</time>
      </trkpt>
      <trkpt lat="43.96386" lon="1.92097">
        <ele>218.84</ele>
        <time>2020-10-25T13:26:09Z</time>
      </trkpt>
      <trkpt lat="43.96371" lon="1.92119">
        <ele>220.28</ele>
        <time>2020-10-25T13:26:27Z</time>
      </trkpt>
      <trkpt lat="43.96357" lon="1.92138">
        <ele>221.72</ele>
        <time>2020-10-25T13:26:46Z</time>
      </trkpt>
      <trkpt lat="43.9635" lon="1.92147">
        <ele>223.64</ele>
        <time>2020-10-25T13:27:02Z</time>
      </trkpt>
      <trkpt lat="43.96345" lon="1.92159">
        <ele>225.57</ele>
        <time>2020-10-25T13:27:17Z</time>
      </trkpt>
      <trkpt lat="43.96337" lon="1.92176">
        <ele>227.49</ele>
        <time>2020-10-25T13:27:31Z</time>
      </trkpt>
      <trkpt lat="43.96329" lon="1.9219">
        <ele>228.93</ele>
        <time>2020-10-25T13:27:45Z</time>
      </trkpt>
      <trkpt lat="43.96328" lon="1.92192">
        <ele>228.93</ele>
        <time>2020-10-25T13:28:06Z</time>
      </trkpt>
      <trkpt lat="43.96327" lon="1.92193">
        <ele>228.45</ele>
        <time>2020-10-25T13:28:30Z</time>
      </trkpt>
      <trkpt lat="43.96325" lon="1.92198">
        <ele>228.45</ele>
        <time>2020-10-25T13:28:46Z</time>
      </trkpt>
      <trkpt lat="43.96321" lon="1.9222">
        <ele>229.41</ele>
        <time>2020-10-25T13:29:03Z</time>
      </trkpt>
      <trkpt lat="43.96322" lon="1.92247">
        <ele>230.37</ele>
        <time>2020-10-25T13:29:21Z</time>
      </trkpt>
      <trkpt lat="43.96321" lon="1.92266">
        <ele>230.85</ele>
        <time>2020-10-25T13:29:39Z</time>
      </trkpt>
      <trkpt lat="43.96316" lon="1.92277">
        <ele>231.33</ele>
        <time>2020-10-25T13:29:55Z</time>
      </trkpt>
      <trkpt lat="43.96316" lon="1.92284">
        <ele>231.33</ele>
        <time>2020-10-25T13:30:05Z</time>
      </trkpt>
      <trkpt lat="43.96313" lon="1.92286">
        <ele>231.33</ele>
        <time>2020-10-25T13:30:30Z</time>
      </trkpt>
      <trkpt lat="43.96312" lon="1.92287">
        <ele>231.33</ele>
        <time>2020-10-25T13:30:46Z</time>
      </trkpt>
      <trkpt lat="43.96311" lon="1.92288">
        <ele>231.33</ele>
        <time>2020-10-25T13:31:03Z</time>
      </trkpt>
      <trkpt lat="43.96312" lon="1.92296">
        <ele>231.33</ele>
        <time>2020-10-25T13:31:18Z</time>
      </trkpt>
      <trkpt lat="43.96313" lon="1.92306">
        <ele>231.33</ele>
        <time>2020-10-25T13:31:32Z</time>
      </trkpt>
      <trkpt lat="43.96313" lon="1.92324">
        <ele>230.85</ele>
        <time>2020-10-25T13:31:52Z</time>
      </trkpt>
      <trkpt lat="43.96314" lon="1.92306">
        <ele>230.85</ele>
        <time>2020-10-25T13:32:08Z</time>
      </trkpt>
      <trkpt lat="43.96313" lon="1.92292">
        <ele>230.85</ele>
        <time>2020-10-25T13:32:23Z</time>
      </trkpt>
      <trkpt lat="43.96313" lon="1.92274">
        <ele>230.85</ele>
        <time>2020-10-25T13:32:41Z</time>
      </trkpt>
      <trkpt lat="43.96314" lon="1.92259">
        <ele>230.85</ele>
        <time>2020-10-25T13:32:56Z</time>
      </trkpt>
      <trkpt lat="43.96313" lon="1.9225">
        <ele>229.89</ele>
        <time>2020-10-25T13:33:05Z</time>
      </trkpt>
      <trkpt lat="43.96314" lon="1.92227">
        <ele>228.93</ele>
        <time>2020-10-25T13:33:20Z</time>
      </trkpt>
      <trkpt lat="43.96317" lon="1.92211">
        <ele>227.97</ele>
        <time>2020-10-25T13:33:34Z</time>
      </trkpt>
      <trkpt lat="43.96323" lon="1.92197">
        <ele>227.49</ele>
        <time>2020-10-25T13:33:48Z</time>
      </trkpt>
      <trkpt lat="43.96327" lon="1.92181">
        <ele>226.53</ele>
        <time>2020-10-25T13:34:02Z</time>
      </trkpt>
      <trkpt lat="43.96334" lon="1.92169">
        <ele>226.05</ele>
        <time>2020-10-25T13:34:15Z</time>
      </trkpt>
      <trkpt lat="43.96348" lon="1.92155">
        <ele>225.57</ele>
        <time>2020-10-25T13:34:32Z</time>
      </trkpt>
      <trkpt lat="43.96352" lon="1.92154">
        <ele>225.57</ele>
        <time>2020-10-25T13:34:52Z</time>
      </trkpt>
      <trkpt lat="43.96355" lon="1.92151">
        <ele>225.57</ele>
        <time>2020-10-25T13:35:13Z</time>
      </trkpt>
      <trkpt lat="43.96356" lon="1.9215">
        <ele>225.57</ele>
        <time>2020-10-25T13:35:33Z</time>
      </trkpt>
      <trkpt lat="43.96362" lon="1.92148">
        <ele>225.57</ele>
        <time>2020-10-25T13:35:57Z</time>
      </trkpt>
      <trkpt lat="43.96364" lon="1.92147">
        <ele>225.09</ele>
        <time>2020-10-25T13:36:13Z</time>
      </trkpt>
      <trkpt lat="43.96368" lon="1.9215">
        <ele>225.09</ele>
        <time>2020-10-25T13:36:27Z</time>
      </trkpt>
      <trkpt lat="43.9637" lon="1.92148">
        <ele>225.09</ele>
        <time>2020-10-25T13:36:49Z</time>
      </trkpt>
      <trkpt lat="43.9638" lon="1.9214">
        <ele>225.09</ele>
        <time>2020-10-25T13:37:05Z</time>
      </trkpt>
      <trkpt lat="43.9639" lon="1.92131">
        <ele>225.09</ele>
        <time>2020-10-25T13:37:20Z</time>
      </trkpt>
      <trkpt lat="43.96398" lon="1.9212">
        <ele>224.61</ele>
        <time>2020-10-25T13:37:29Z</time>
      </trkpt>
      <trkpt lat="43.96414" lon="1.92101">
        <ele>224.61</ele>
        <time>2020-10-25T13:37:46Z</time>
      </trkpt>
      <trkpt lat="43.96426" lon="1.92076">
        <ele>224.61</ele>
        <time>2020-10-25T13:38:05Z</time>
      </trkpt>
      <trkpt lat="43.96431" lon="1.92052">
        <ele>224.61</ele>
        <time>2020-10-25T13:38:21Z</time>
      </trkpt>
      <trkpt lat="43.96433" lon="1.92045">
        <ele>226.05</ele>
        <time>2020-10-25T13:38:26Z</time>
      </trkpt>
      <trkpt lat="43.96436" lon="1.92027">
        <ele>226.05</ele>
        <time>2020-10-25T13:38:41Z</time>
      </trkpt>
      <trkpt lat="43.96441" lon="1.92023">
        <ele>226.05</ele>
        <time>2020-10-25T13:38:59Z</time>
      </trkpt>
      <trkpt lat="43.9644" lon="1.92023">
        <ele>226.05</ele>
        <time>2020-10-25T13:39:12Z</time>
      </trkpt>
      <trkpt lat="43.9644" lon="1.92021">
        <ele>226.05</ele>
        <time>2020-10-25T13:39:27Z</time>
      </trkpt>
      <trkpt lat="43.96442" lon="1.92021">
        <ele>226.05</ele>
        <time>2020-10-25T13:39:44Z</time>
      </trkpt>
      <trkpt lat="43.96442" lon="1.9202">
        <ele>226.53</ele>
        <time>2020-10-25T13:39:47Z</time>
      </trkpt>
      <trkpt lat="43.96458" lon="1.92005">
        <ele>227.01</ele>
        <time>2020-10-25T13:40:07Z</time>
      </trkpt>
      <trkpt lat="43.96466" lon="1.92005">
        <ele>227.97</ele>
        <time>2020-10-25T13:40:14Z</time>
      </trkpt>
      <trkpt lat="43.96494" lon="1.92016">
        <ele>228.93</ele>
        <time>2020-10-25T13:40:36Z</time>
      </trkpt>
      <trkpt lat="43.96523" lon="1.92024">
        <ele>229.41</ele>
        <time>2020-10-25T13:40:57Z</time>
      </trkpt>
      <trkpt lat="43.96555" lon="1.92022">
        <ele>229.41</ele>
        <time>2020-10-25T13:41:20Z</time>
      </trkpt>
      <trkpt lat="43.96581" lon="1.92027">
        <ele>230.37</ele>
        <time>2020-10-25T13:41:40Z</time>
      </trkpt>
      <trkpt lat="43.96612" lon="1.92039">
        <ele>231.81</ele>
        <time>2020-10-25T13:42:04Z</time>
      </trkpt>
      <trkpt lat="43.96643" lon="1.9204">
        <ele>233.26</ele>
        <time>2020-10-25T13:42:27Z</time>
      </trkpt>
      <trkpt lat="43.96672" lon="1.92031">
        <ele>235.18</ele>
        <time>2020-10-25T13:42:50Z</time>
      </trkpt>
      <trkpt lat="43.96702" lon="1.92016">
        <ele>236.14</ele>
        <time>2020-10-25T13:43:14Z</time>
      </trkpt>
      <trkpt lat="43.9673" lon="1.92004">
        <ele>237.1</ele>
        <time>2020-10-25T13:43:36Z</time>
      </trkpt>
      <trkpt lat="43.96752" lon="1.91998">
        <ele>238.06</ele>
        <time>2020-10-25T13:43:53Z</time>
      </trkpt>
      <trkpt lat="43.96781" lon="1.91994">
        <ele>239.02</ele>
        <time>2020-10-25T13:44:16Z</time>
      </trkpt>
      <trkpt lat="43.96813" lon="1.91998">
        <ele>240.95</ele>
        <time>2020-10-25T13:44:42Z</time>
      </trkpt>
      <trkpt lat="43.96841" lon="1.92009">
        <ele>242.87</ele>
        <time>2020-10-25T13:45:05Z</time>
      </trkpt>
      <trkpt lat="43.96872" lon="1.92023">
        <ele>245.27</ele>
        <time>2020-10-25T13:45:31Z</time>
      </trkpt>
      <trkpt lat="43.96897" lon="1.92041">
        <ele>247.2</ele>
        <time>2020-10-25T13:45:54Z</time>
      </trkpt>
      <trkpt lat="43.96919" lon="1.92063">
        <ele>249.6</ele>
        <time>2020-10-25T13:46:16Z</time>
      </trkpt>
      <trkpt lat="43.9694" lon="1.92083">
        <ele>251.52</ele>
        <time>2020-10-25T13:46:38Z</time>
      </trkpt>
      <trkpt lat="43.96958" lon="1.92104">
        <ele>253.44</ele>
        <time>2020-10-25T13:46:56Z</time>
      </trkpt>
      <trkpt lat="43.96979" lon="1.92128">
        <ele>255.85</ele>
        <time>2020-10-25T13:47:19Z</time>
      </trkpt>
      <trkpt lat="43.96995" lon="1.92151">
        <ele>257.77</ele>
        <time>2020-10-25T13:47:41Z</time>
      </trkpt>
      <trkpt lat="43.97001" lon="1.92152">
        <ele>257.77</ele>
        <time>2020-10-25T13:47:54Z</time>
      </trkpt>
      <trkpt lat="43.97003" lon="1.92156">
        <ele>257.77</ele>
        <time>2020-10-25T13:48:00Z</time>
      </trkpt>
      <trkpt lat="43.97021" lon="1.92129">
        <ele>257.77</ele>
        <time>2020-10-25T13:48:21Z</time>
      </trkpt>
      <trkpt lat="43.97041" lon="1.92107">
        <ele>256.81</ele>
        <time>2020-10-25T13:48:40Z</time>
      </trkpt>
      <trkpt lat="43.97068" lon="1.92095">
        <ele>256.81</ele>
        <time>2020-10-25T13:49:02Z</time>
      </trkpt>
      <trkpt lat="43.97096" lon="1.92094">
        <ele>256.81</ele>
        <time>2020-10-25T13:49:23Z</time>
      </trkpt>
      <trkpt lat="43.97121" lon="1.92074">
        <ele>256.33</ele>
        <time>2020-10-25T13:49:45Z</time>
      </trkpt>
      <trkpt lat="43.97144" lon="1.92044">
        <ele>255.85</ele>
        <time>2020-10-25T13:50:09Z</time>
      </trkpt>
      <trkpt lat="43.97166" lon="1.92014">
        <ele>255.37</ele>
        <time>2020-10-25T13:50:32Z</time>
      </trkpt>
      <trkpt lat="43.97188" lon="1.91982">
        <ele>253.93</ele>
        <time>2020-10-25T13:50:56Z</time>
      </trkpt>
      <trkpt lat="43.97203" lon="1.91947">
        <ele>252.96</ele>
        <time>2020-10-25T13:51:18Z</time>
      </trkpt>
      <trkpt lat="43.97208" lon="1.91935">
        <ele>252.48</ele>
        <time>2020-10-25T13:51:32Z</time>
      </trkpt>
      <trkpt lat="43.97211" lon="1.91925">
        <ele>252</ele>
        <time>2020-10-25T13:51:45Z</time>
      </trkpt>
      <trkpt lat="43.97217" lon="1.91908">
        <ele>251.52</ele>
        <time>2020-10-25T13:52:01Z</time>
      </trkpt>
      <trkpt lat="43.97224" lon="1.91888">
        <ele>250.56</ele>
        <time>2020-10-25T13:52:18Z</time>
      </trkpt>
      <trkpt lat="43.97225" lon="1.91888">
        <ele>250.56</ele>
        <time>2020-10-25T13:52:31Z</time>
      </trkpt>
      <trkpt lat="43.97224" lon="1.91889">
        <ele>250.56</ele>
        <time>2020-10-25T13:52:33Z</time>
      </trkpt>
      <trkpt lat="43.97218" lon="1.91909">
        <ele>250.56</ele>
        <time>2020-10-25T13:52:54Z</time>
      </trkpt>
      <trkpt lat="43.97219" lon="1.91911">
        <ele>250.56</ele>
        <time>2020-10-25T13:53:07Z</time>
      </trkpt>
      <trkpt lat="43.97218" lon="1.91911">
        <ele>251.52</ele>
        <time>2020-10-25T13:53:24Z</time>
      </trkpt>
      <trkpt lat="43.97218" lon="1.91911">
        <ele>251.52</ele>
        <time>2020-10-25T13:53:43Z</time>
      </trkpt>
      <trkpt lat="43.97217" lon="1.91911">
        <ele>251.52</ele>
        <time>2020-10-25T13:53:53Z</time>
      </trkpt>
      <trkpt lat="43.9721" lon="1.9193">
        <ele>252</ele>
        <time>2020-10-25T13:54:10Z</time>
      </trkpt>
      <trkpt lat="43.97209" lon="1.9193">
        <ele>252.48</ele>
        <time>2020-10-25T13:54:25Z</time>
      </trkpt>
      <trkpt lat="43.97209" lon="1.9193">
        <ele>252.48</ele>
        <time>2020-10-25T13:54:43Z</time>
      </trkpt>
      <trkpt lat="43.9721" lon="1.91928">
        <ele>252.48</ele>
        <time>2020-10-25T13:55:04Z</time>
      </trkpt>
      <trkpt lat="43.97216" lon="1.91914">
        <ele>252</ele>
        <time>2020-10-25T13:55:14Z</time>
      </trkpt>
      <trkpt lat="43.97234" lon="1.91928">
        <ele>250.56</ele>
        <time>2020-10-25T13:55:30Z</time>
      </trkpt>
      <trkpt lat="43.9725" lon="1.91949">
        <ele>249.12</ele>
        <time>2020-10-25T13:55:48Z</time>
      </trkpt>
      <trkpt lat="43.97271" lon="1.91971">
        <ele>246.72</ele>
        <time>2020-10-25T13:56:08Z</time>
      </trkpt>
      <trkpt lat="43.97292" lon="1.91998">
        <ele>245.75</ele>
        <time>2020-10-25T13:56:29Z</time>
      </trkpt>
      <trkpt lat="43.97312" lon="1.92017">
        <ele>244.79</ele>
        <time>2020-10-25T13:56:48Z</time>
      </trkpt>
      <trkpt lat="43.9733" lon="1.92039">
        <ele>244.79</ele>
        <time>2020-10-25T13:57:06Z</time>
      </trkpt>
      <trkpt lat="43.97352" lon="1.92063">
        <ele>244.79</ele>
        <time>2020-10-25T13:57:27Z</time>
      </trkpt>
      <trkpt lat="43.97372" lon="1.92083">
        <ele>244.31</ele>
        <time>2020-10-25T13:57:46Z</time>
      </trkpt>
      <trkpt lat="43.97388" lon="1.92103">
        <ele>242.87</ele>
        <time>2020-10-25T13:58:05Z</time>
      </trkpt>
      <trkpt lat="43.97407" lon="1.92125">
        <ele>240.47</ele>
        <time>2020-10-25T13:58:24Z</time>
      </trkpt>
      <trkpt lat="43.97427" lon="1.92149">
        <ele>239.02</ele>
        <time>2020-10-25T13:58:44Z</time>
      </trkpt>
      <trkpt lat="43.97444" lon="1.92169">
        <ele>236.62</ele>
        <time>2020-10-25T13:59:03Z</time>
      </trkpt>
      <trkpt lat="43.97455" lon="1.92176">
        <ele>235.18</ele>
        <time>2020-10-25T13:59:14Z</time>
      </trkpt>
      <trkpt lat="43.97475" lon="1.922">
        <ele>234.7</ele>
        <time>2020-10-25T13:59:32Z</time>
      </trkpt>
      <trkpt lat="43.97494" lon="1.9222">
        <ele>234.22</ele>
        <time>2020-10-25T13:59:48Z</time>
      </trkpt>
      <trkpt lat="43.97513" lon="1.92242">
        <ele>233.74</ele>
        <time>2020-10-25T14:00:06Z</time>
      </trkpt>
      <trkpt lat="43.9753" lon="1.92243">
        <ele>233.26</ele>
        <time>2020-10-25T14:00:21Z</time>
      </trkpt>
      <trkpt lat="43.97539" lon="1.9222">
        <ele>233.26</ele>
        <time>2020-10-25T14:00:37Z</time>
      </trkpt>
      <trkpt lat="43.9755" lon="1.92192">
        <ele>233.26</ele>
        <time>2020-10-25T14:00:55Z</time>
      </trkpt>
      <trkpt lat="43.9755" lon="1.92191">
        <ele>233.26</ele>
        <time>2020-10-25T14:00:56Z</time>
      </trkpt>
      <trkpt lat="43.97558" lon="1.92181">
        <ele>233.26</ele>
        <time>2020-10-25T14:01:09Z</time>
      </trkpt>
      <trkpt lat="43.97554" lon="1.92196">
        <ele>233.26</ele>
        <time>2020-10-25T14:01:24Z</time>
      </trkpt>
      <trkpt lat="43.97551" lon="1.922">
        <ele>233.74</ele>
        <time>2020-10-25T14:01:40Z</time>
      </trkpt>
      <trkpt lat="43.97546" lon="1.92208">
        <ele>233.26</ele>
        <time>2020-10-25T14:01:56Z</time>
      </trkpt>
      <trkpt lat="43.97546" lon="1.92205">
        <ele>233.26</ele>
        <time>2020-10-25T14:02:05Z</time>
      </trkpt>
      <trkpt lat="43.97557" lon="1.92177">
        <ele>234.22</ele>
        <time>2020-10-25T14:02:22Z</time>
      </trkpt>
      <trkpt lat="43.9757" lon="1.92158">
        <ele>236.14</ele>
        <time>2020-10-25T14:02:37Z</time>
      </trkpt>
      <trkpt lat="43.97591" lon="1.92134">
        <ele>236.14</ele>
        <time>2020-10-25T14:02:56Z</time>
      </trkpt>
      <trkpt lat="43.97607" lon="1.92106">
        <ele>235.66</ele>
        <time>2020-10-25T14:03:15Z</time>
      </trkpt>
      <trkpt lat="43.97622" lon="1.92078">
        <ele>234.7</ele>
        <time>2020-10-25T14:03:34Z</time>
      </trkpt>
      <trkpt lat="43.97638" lon="1.92048">
        <ele>233.74</ele>
        <time>2020-10-25T14:03:53Z</time>
      </trkpt>
      <trkpt lat="43.9766" lon="1.92014">
        <ele>232.78</ele>
        <time>2020-10-25T14:04:16Z</time>
      </trkpt>
      <trkpt lat="43.9768" lon="1.91983">
        <ele>232.3</ele>
        <time>2020-10-25T14:04:38Z</time>
      </trkpt>
      <trkpt lat="43.97702" lon="1.91957">
        <ele>232.3</ele>
        <time>2020-10-25T14:05:00Z</time>
      </trkpt>
      <trkpt lat="43.97722" lon="1.91934">
        <ele>231.81</ele>
        <time>2020-10-25T14:05:18Z</time>
      </trkpt>
      <trkpt lat="43.97748" lon="1.91906">
        <ele>231.33</ele>
        <time>2020-10-25T14:05:43Z</time>
      </trkpt>
      <trkpt lat="43.9775" lon="1.91905">
        <ele>231.33</ele>
        <time>2020-10-25T14:05:53Z</time>
      </trkpt>
      <trkpt lat="43.97775" lon="1.91891">
        <ele>229.89</ele>
        <time>2020-10-25T14:06:14Z</time>
      </trkpt>
      <trkpt lat="43.97801" lon="1.91875">
        <ele>229.89</ele>
        <time>2020-10-25T14:06:35Z</time>
      </trkpt>
      <trkpt lat="43.97832" lon="1.91859">
        <ele>228.93</ele>
        <time>2020-10-25T14:07:00Z</time>
      </trkpt>
      <trkpt lat="43.9786" lon="1.91843">
        <ele>227.49</ele>
        <time>2020-10-25T14:07:23Z</time>
      </trkpt>
      <trkpt lat="43.97882" lon="1.91826">
        <ele>226.53</ele>
        <time>2020-10-25T14:07:43Z</time>
      </trkpt>
      <trkpt lat="43.97898" lon="1.91813">
        <ele>225.57</ele>
        <time>2020-10-25T14:08:01Z</time>
      </trkpt>
      <trkpt lat="43.9791" lon="1.91801">
        <ele>224.61</ele>
        <time>2020-10-25T14:08:15Z</time>
      </trkpt>
      <trkpt lat="43.97929" lon="1.91788">
        <ele>223.16</ele>
        <time>2020-10-25T14:08:30Z</time>
      </trkpt>
      <trkpt lat="43.97948" lon="1.91776">
        <ele>222.68</ele>
        <time>2020-10-25T14:08:46Z</time>
      </trkpt>
      <trkpt lat="43.97966" lon="1.91761">
        <ele>222.2</ele>
        <time>2020-10-25T14:09:04Z</time>
      </trkpt>
      <trkpt lat="43.97978" lon="1.91744">
        <ele>221.24</ele>
        <time>2020-10-25T14:09:19Z</time>
      </trkpt>
      <trkpt lat="43.97992" lon="1.91728">
        <ele>219.8</ele>
        <time>2020-10-25T14:09:34Z</time>
      </trkpt>
      <trkpt lat="43.9801" lon="1.91714">
        <ele>218.36</ele>
        <time>2020-10-25T14:09:49Z</time>
      </trkpt>
      <trkpt lat="43.98027" lon="1.91704">
        <ele>216.91</ele>
        <time>2020-10-25T14:10:06Z</time>
      </trkpt>
      <trkpt lat="43.98029" lon="1.91703">
        <ele>216.91</ele>
        <time>2020-10-25T14:10:08Z</time>
      </trkpt>
      <trkpt lat="43.9805" lon="1.91695">
        <ele>213.07</ele>
        <time>2020-10-25T14:10:25Z</time>
      </trkpt>
      <trkpt lat="43.98064" lon="1.91683">
        <ele>211.15</ele>
        <time>2020-10-25T14:10:40Z</time>
      </trkpt>
      <trkpt lat="43.98069" lon="1.91665">
        <ele>209.22</ele>
        <time>2020-10-25T14:10:51Z</time>
      </trkpt>
      <trkpt lat="43.98079" lon="1.91649">
        <ele>208.26</ele>
        <time>2020-10-25T14:11:08Z</time>
      </trkpt>
      <trkpt lat="43.98093" lon="1.9162">
        <ele>206.82</ele>
        <time>2020-10-25T14:11:27Z</time>
      </trkpt>
      <trkpt lat="43.98101" lon="1.91591">
        <ele>206.34</ele>
        <time>2020-10-25T14:11:45Z</time>
      </trkpt>
      <trkpt lat="43.98102" lon="1.91556">
        <ele>205.38</ele>
        <time>2020-10-25T14:12:05Z</time>
      </trkpt>
      <trkpt lat="43.98104" lon="1.91525">
        <ele>204.9</ele>
        <time>2020-10-25T14:12:24Z</time>
      </trkpt>
      <trkpt lat="43.98104" lon="1.9152">
        <ele>204.9</ele>
        <time>2020-10-25T14:12:37Z</time>
      </trkpt>
      <trkpt lat="43.98107" lon="1.91506">
        <ele>204.42</ele>
        <time>2020-10-25T14:12:50Z</time>
      </trkpt>
      <trkpt lat="43.98112" lon="1.91478">
        <ele>203.94</ele>
        <time>2020-10-25T14:13:07Z</time>
      </trkpt>
      <trkpt lat="43.98113" lon="1.91474">
        <ele>203.94</ele>
        <time>2020-10-25T14:13:20Z</time>
      </trkpt>
      <trkpt lat="43.98118" lon="1.9146">
        <ele>203.94</ele>
        <time>2020-10-25T14:13:35Z</time>
      </trkpt>
      <trkpt lat="43.98129" lon="1.91422">
        <ele>202.98</ele>
        <time>2020-10-25T14:13:57Z</time>
      </trkpt>
      <trkpt lat="43.9813" lon="1.91412">
        <ele>202.98</ele>
        <time>2020-10-25T14:14:04Z</time>
      </trkpt>
      <trkpt lat="43.98131" lon="1.91403">
        <ele>202.98</ele>
        <time>2020-10-25T14:14:09Z</time>
      </trkpt>
      <trkpt lat="43.98133" lon="1.91374">
        <ele>202.49</ele>
        <time>2020-10-25T14:14:26Z</time>
      </trkpt>
      <trkpt lat="43.98131" lon="1.91348">
        <ele>202.49</ele>
        <time>2020-10-25T14:14:40Z</time>
      </trkpt>
      <trkpt lat="43.98134" lon="1.91322">
        <ele>203.46</ele>
        <time>2020-10-25T14:14:54Z</time>
      </trkpt>
      <trkpt lat="43.98133" lon="1.91301">
        <ele>204.42</ele>
        <time>2020-10-25T14:15:08Z</time>
      </trkpt>
      <trkpt lat="43.98134" lon="1.91288">
        <ele>204.9</ele>
        <time>2020-10-25T14:15:20Z</time>
      </trkpt>
      <trkpt lat="43.98138" lon="1.9127">
        <ele>206.34</ele>
        <time>2020-10-25T14:15:33Z</time>
      </trkpt>
      <trkpt lat="43.98153" lon="1.91237">
        <ele>206.34</ele>
        <time>2020-10-25T14:15:48Z</time>
      </trkpt>
      <trkpt lat="43.98175" lon="1.91214">
        <ele>206.34</ele>
        <time>2020-10-25T14:16:06Z</time>
      </trkpt>
      <trkpt lat="43.98195" lon="1.91194">
        <ele>206.34</ele>
        <time>2020-10-25T14:16:22Z</time>
      </trkpt>
      <trkpt lat="43.98211" lon="1.91177">
        <ele>206.34</ele>
        <time>2020-10-25T14:16:38Z</time>
      </trkpt>
      <trkpt lat="43.98212" lon="1.91176">
        <ele>206.34</ele>
        <time>2020-10-25T14:16:39Z</time>
      </trkpt>
      <trkpt lat="43.98229" lon="1.91168">
        <ele>207.3</ele>
        <time>2020-10-25T14:16:55Z</time>
      </trkpt>
      <trkpt lat="43.98246" lon="1.91153">
        <ele>208.26</ele>
        <time>2020-10-25T14:17:11Z</time>
      </trkpt>
      <trkpt lat="43.98266" lon="1.91142">
        <ele>209.22</ele>
        <time>2020-10-25T14:17:27Z</time>
      </trkpt>
      <trkpt lat="43.98279" lon="1.91139">
        <ele>209.7</ele>
        <time>2020-10-25T14:17:44Z</time>
      </trkpt>
      <trkpt lat="43.98292" lon="1.91122">
        <ele>210.19</ele>
        <time>2020-10-25T14:17:56Z</time>
      </trkpt>
      <trkpt lat="43.98299" lon="1.91115">
        <ele>211.15</ele>
        <time>2020-10-25T14:18:09Z</time>
      </trkpt>
      <trkpt lat="43.98302" lon="1.91108">
        <ele>211.15</ele>
        <time>2020-10-25T14:18:15Z</time>
      </trkpt>
      <trkpt lat="43.98298" lon="1.9109">
        <ele>212.59</ele>
        <time>2020-10-25T14:18:32Z</time>
      </trkpt>
      <trkpt lat="43.98297" lon="1.91081">
        <ele>213.07</ele>
        <time>2020-10-25T14:18:41Z</time>
      </trkpt>
      <trkpt lat="43.98294" lon="1.91078">
        <ele>213.55</ele>
        <time>2020-10-25T14:18:51Z</time>
      </trkpt>
      <trkpt lat="43.98283" lon="1.91064">
        <ele>214.51</ele>
        <time>2020-10-25T14:19:03Z</time>
      </trkpt>
      <trkpt lat="43.98277" lon="1.91073">
        <ele>216.43</ele>
        <time>2020-10-25T14:19:17Z</time>
      </trkpt>
      <trkpt lat="43.98272" lon="1.91092">
        <ele>218.36</ele>
        <time>2020-10-25T14:19:31Z</time>
      </trkpt>
      <trkpt lat="43.98269" lon="1.91098">
        <ele>219.32</ele>
        <time>2020-10-25T14:19:37Z</time>
      </trkpt>
      <trkpt lat="43.98253" lon="1.91106">
        <ele>219.8</ele>
        <time>2020-10-25T14:19:56Z</time>
      </trkpt>
      <trkpt lat="43.98246" lon="1.91106">
        <ele>220.28</ele>
        <time>2020-10-25T14:20:12Z</time>
      </trkpt>
      <trkpt lat="43.98242" lon="1.91106">
        <ele>220.28</ele>
        <time>2020-10-25T14:20:27Z</time>
      </trkpt>
      <trkpt lat="43.98237" lon="1.91103">
        <ele>220.76</ele>
        <time>2020-10-25T14:20:48Z</time>
      </trkpt>
      <trkpt lat="43.98236" lon="1.91101">
        <ele>219.32</ele>
        <time>2020-10-25T14:20:56Z</time>
      </trkpt>
      <trkpt lat="43.98232" lon="1.91105">
        <ele>220.76</ele>
        <time>2020-10-25T14:21:21Z</time>
      </trkpt>
      <trkpt lat="43.98337" lon="1.90943">
        <ele>207.9</ele>
      </trkpt>
      <trkpt lat="43.98206" lon="1.90724">
        <ele>217.8</ele>
      </trkpt>
      <trkpt lat="43.98171" lon="1.90494">
        <ele>222.1</ele>
      </trkpt>
      <trkpt lat="43.98075" lon="1.90311">
        <ele>224.6</ele>
      </trkpt>
      <trkpt lat="43.97822" lon="1.90117">
        <ele>213.9</ele>
      </trkpt>
      <trkpt lat="43.97743" lon="1.90117">
        <ele>216.4</ele>
      </trkpt>
      <trkpt lat="43.97839" lon="1.90057">
        <ele>211.3</ele>
      </trkpt>
    </trkseg>
  </trk>
</gpx>